Darstellungsparameter: Aktuell verwendete Einstellungen:
Skalierung der Graphiken ... ?
xyx+y,   Skalierungsfaktor:      Skalierung: Modus: x, Faktor: 1
Darstellungszeitraum ... ?
Vom - - bis: - -   Zeitraum: 03.01.2011 - 16.01.2011
Min/Max/Avg-Anzeige ... ?
Zeige MMA aktuell
Zeige MMA Monat
Zeige MMA alles
Zeige --A aktuell
Zeige --A Monat
Zeige --A alles
Keine MMA-Anzeige
MMA:
Keine MMA-Graphiken
MMA-Basis: 03.01.2011 - 16.01.2011
Quicknavigation für Darstellung... ?
Tage:      1T, 2T, 3T, 5T -1T -2T -3T -5T +1T +2T +3T +5T
Wochen: 1W, 2W, 3W -1W -2W -3W +1W +2W +3W
Monate: 1M, 3M, 6M -1M -3M -6M +1M +3M +6M
Jahre:    1J, 3J, 5J, 10J -1J -3J -5J -10J +1J +3J +5J +10J
Nutze für die Darstellung ... ?
Originaldaten oder Mittelwerte auf ...
Stundenbasis Tagesbasis Wochenbasis
Monatsbasis Jahresbasis      Datenbasis: Original-Daten
Darstellen als:
Statistik (Auto) Statistik J:M      Darstellung:
Zur Graphik,    zurück zur Übersicht aller Sensoren.
 
Tabellarische Datenbersicht: ?
 
Sensor: Nr:Datum:Temp:Abs-Feuchte:Windchill:Wind:
Aussen-T/F 1 03-01-2011 00:05:03 0.1 C 4.34 g/m*3 0.1 C 0 km/h
2 03-01-2011 00:17:03 0.1 C 4.34 g/m*3 0.1 C 0 km/h
3 03-01-2011 00:29:03 0.2 C 4.37 g/m*3 0.2 C 0 km/h
4 03-01-2011 00:41:03 0.1 C 4.34 g/m*3 0.1 C 0 km/h
5 03-01-2011 00:53:03 0.1 C 4.29 g/m*3 0.1 C 0 km/h
6 03-01-2011 01:05:03 0 C 4.26 g/m*3 0 C 0 km/h
7 03-01-2011 01:17:03 0.1 C 4.29 g/m*3 0.1 C 0 km/h
8 03-01-2011 01:29:03 0.1 C 4.29 g/m*3 0.1 C 0 km/h
9 03-01-2011 01:41:03 0 C 4.26 g/m*3 0 C 0 km/h
10 03-01-2011 01:53:03 0.1 C 4.29 g/m*3 0.1 C 0 km/h
11 03-01-2011 02:05:04 0 C 4.26 g/m*3 0 C 0 km/h
12 03-01-2011 02:17:04 0 C 4.26 g/m*3 0 C 0 km/h
13 03-01-2011 02:29:04 -0.2 C 4.21 g/m*3 -0.2 C 0 km/h
14 03-01-2011 02:41:04 -0.2 C 4.21 g/m*3 -0.2 C 0 km/h
15 03-01-2011 02:53:04 -0.4 C 4.15 g/m*3 -0.4 C 0 km/h
16 03-01-2011 03:05:04 -0.2 C 4.21 g/m*3 -0.2 C 0 km/h
17 03-01-2011 03:17:04 -0.2 C 4.21 g/m*3 -0.2 C 0 km/h
18 03-01-2011 03:29:04 -0.3 C 4.13 g/m*3 -0.3 C 0 km/h
19 03-01-2011 03:41:04 -0.4 C 4.05 g/m*3 -0.4 C 0 km/h
20 03-01-2011 03:53:04 -0.4 C 4.01 g/m*3 -0.4 C 0 km/h
21 03-01-2011 04:05:04 -0.6 C 3.9 g/m*3 -0.6 C 0 km/h
22 03-01-2011 04:17:04 -1.1 C 3.77 g/m*3 -1.1 C 0 km/h
23 03-01-2011 04:29:04 -0.9 C 3.87 g/m*3 -0.9 C 0 km/h
24 03-01-2011 04:41:04 -0.9 C 3.82 g/m*3 -0.9 C 0 km/h
25 03-01-2011 04:53:04 -0.9 C 3.87 g/m*3 -0.9 C 0 km/h
Sensor: Nr:Datum:Temp:Abs-Feuchte:Windchill:Wind:
Aussen-T/F 26 03-01-2011 05:05:04 -0.9 C 3.87 g/m*3 -0.9 C 0 km/h
27 03-01-2011 05:17:04 -1 C 3.89 g/m*3 -1 C 0 km/h
28 03-01-2011 05:29:04 -1.1 C 3.82 g/m*3 -1.1 C 0 km/h
29 03-01-2011 05:41:04 -1.1 C 3.82 g/m*3 -1.1 C 0 km/h
30 03-01-2011 05:53:04 -1.1 C 3.82 g/m*3 -1.1 C 0 km/h
31 03-01-2011 06:05:04 -1.1 C 3.82 g/m*3 -1.1 C 0 km/h
32 03-01-2011 06:17:05 -1.1 C 3.86 g/m*3 -1.1 C 0 km/h
33 03-01-2011 06:29:05 -1.1 C 3.91 g/m*3 -1.1 C 0 km/h
34 03-01-2011 06:41:05 -1.2 C 3.88 g/m*3 -1.2 C 0 km/h
35 03-01-2011 06:53:05 -1.1 C 3.95 g/m*3 -1.1 C 0 km/h
36 03-01-2011 07:05:05 -1.1 C 3.95 g/m*3 -1.1 C 0 km/h
37 03-01-2011 07:17:03 -1.1 C 4 g/m*3 -1.1 C 0 km/h
38 03-01-2011 07:29:03 -1.1 C 4 g/m*3 -1.1 C 0 km/h
39 03-01-2011 07:41:03 -1 C 4.02 g/m*3 -1 C 0 km/h
40 03-01-2011 07:53:02 -1.1 C 4 g/m*3 -1.1 C 0 km/h
41 03-01-2011 08:05:03 -1.4 C 3.87 g/m*3 -1.4 C 0 km/h
42 03-01-2011 08:17:02 -1.4 C 3.87 g/m*3 -1.4 C 0 km/h
43 03-01-2011 08:29:02 -1.3 C 3.94 g/m*3 -1.3 C 0 km/h
44 03-01-2011 08:41:02 -1.2 C 3.92 g/m*3 -1.2 C 0 km/h
45 03-01-2011 08:53:02 -1.2 C 3.92 g/m*3 -1.2 C 0 km/h
46 03-01-2011 09:05:02 -1.3 C 3.94 g/m*3 -1.3 C 0 km/h
47 03-01-2011 09:17:01 -1.3 C 3.94 g/m*3 -1.3 C 0 km/h
48 03-01-2011 09:29:01 -1.2 C 3.92 g/m*3 -1.2 C 0 km/h
49 03-01-2011 09:41:02 -1.2 C 3.92 g/m*3 -1.2 C 0 km/h
50 03-01-2011 09:53:02 -1.1 C 3.91 g/m*3 -1.1 C 0 km/h
Sensor: Nr:Datum:Temp:Abs-Feuchte:Windchill:Wind:
Aussen-T/F 51 03-01-2011 10:05:03 -1.1 C 3.91 g/m*3 -1.1 C 0 km/h
52 03-01-2011 10:17:02 -1.1 C 3.86 g/m*3 -1.1 C 0 km/h
53 03-01-2011 10:29:02 -1.2 C 3.79 g/m*3 -1.2 C 0 km/h
54 03-01-2011 10:41:02 -0.8 C 3.9 g/m*3 -0.8 C 0 km/h
55 03-01-2011 10:53:02 -0.9 C 3.82 g/m*3 -0.9 C 0 km/h
56 03-01-2011 11:05:02 -0.6 C 3.81 g/m*3 -0.6 C 0 km/h
57 03-01-2011 11:17:01 -0.4 C 3.77 g/m*3 -0.4 C 0 km/h
58 03-01-2011 11:29:01 -0.2 C 3.73 g/m*3 -0.2 C 0 km/h
59 03-01-2011 11:41:02 -0.2 C 3.63 g/m*3 -0.2 C 0 km/h
60 03-01-2011 11:53:02 -0.1 C 3.71 g/m*3 -0.1 C 0 km/h
61 03-01-2011 12:05:02 0 C 3.68 g/m*3 0 C 0 km/h
62 03-01-2011 12:17:01 0.2 C 3.73 g/m*3 0.2 C 0 km/h
63 03-01-2011 12:29:01 0.3 C 3.76 g/m*3 0.3 C 0 km/h
64 03-01-2011 12:41:02 0.3 C 3.71 g/m*3 0.3 C 0 km/h
65 03-01-2011 12:53:01 0.5 C 3.76 g/m*3 0.5 C 0 km/h
66 03-01-2011 13:05:02 1 C 3.84 g/m*3 1 C 0 km/h
67 03-01-2011 13:17:02 0.9 C 3.81 g/m*3 0.9 C 0 km/h
68 03-01-2011 13:29:02 0.9 C 3.81 g/m*3 0.9 C 0 km/h
69 03-01-2011 13:41:02 1.1 C 3.81 g/m*3 1.1 C 0 km/h
70 03-01-2011 13:53:02 0.7 C 3.76 g/m*3 0.7 C 0 km/h
71 03-01-2011 14:05:01 0.8 C 3.84 g/m*3 0.8 C 0 km/h
72 03-01-2011 14:17:02 0.7 C 3.81 g/m*3 0.7 C 0 km/h
73 03-01-2011 14:29:03 0.7 C 3.86 g/m*3 0.7 C 0 km/h
74 03-01-2011 14:41:01 1.1 C 3.92 g/m*3 1.1 C 0 km/h
75 03-01-2011 14:53:02 1 C 3.84 g/m*3 1 C 0 km/h
Sensor: Nr:Datum:Temp:Abs-Feuchte:Windchill:Wind:
Aussen-T/F 76 03-01-2011 15:05:02 1 C 3.84 g/m*3 1 C 0 km/h
77 03-01-2011 15:17:02 0.4 C 3.79 g/m*3 0.4 C 0 km/h
78 03-01-2011 15:29:02 -0.1 C 3.75 g/m*3 -0.1 C 0 km/h
79 03-01-2011 15:41:03 -0.6 C 3.67 g/m*3 -0.6 C 0 km/h
80 03-01-2011 15:53:02 -1.1 C 3.64 g/m*3 -1.1 C 0 km/h
81 03-01-2011 16:05:02 -1.3 C 3.63 g/m*3 -1.3 C 0 km/h
82 03-01-2011 16:17:01 -1.5 C 3.62 g/m*3 -1.5 C 0 km/h
83 03-01-2011 16:29:01 -2 C 3.5 g/m*3 -2 C 0 km/h
84 03-01-2011 16:41:02 -1.7 C 3.66 g/m*3 -1.7 C 0 km/h
85 03-01-2011 16:53:02 -1.2 C 3.83 g/m*3 -1.2 C 0 km/h
86 03-01-2011 17:05:02 -1.9 C 3.65 g/m*3 -1.9 C 0 km/h
87 03-01-2011 17:17:02 -2.6 C 3.48 g/m*3 -2.6 C 0 km/h
88 03-01-2011 17:29:02 -2.5 C 3.5 g/m*3 -2.5 C 0 km/h
89 03-01-2011 17:41:02 -2.9 C 3.44 g/m*3 -2.9 C 0 km/h
90 03-01-2011 17:53:02 -2.4 C 3.57 g/m*3 -2.4 C 0 km/h
91 03-01-2011 18:05:01 -1.7 C 3.79 g/m*3 -1.7 C 0 km/h
92 03-01-2011 18:17:01 -1.4 C 3.91 g/m*3 -1.4 C 0 km/h
93 03-01-2011 18:29:01 -1.3 C 3.94 g/m*3 -1.3 C 0 km/h
94 03-01-2011 18:41:02 -1.1 C 4 g/m*3 -1.1 C 0 km/h
95 03-01-2011 18:53:02 -1 C 4.02 g/m*3 -1 C 0 km/h
96 03-01-2011 19:05:02 -1.1 C 4 g/m*3 -1.1 C 0 km/h
97 03-01-2011 19:17:02 -1.1 C 4 g/m*3 -1.1 C 0 km/h
98 03-01-2011 19:29:02 -1.1 C 4.04 g/m*3 -1.1 C 0 km/h
99 03-01-2011 19:41:02 -1.2 C 4.01 g/m*3 -1.2 C 0 km/h
100 03-01-2011 19:53:02 -1.6 C 3.86 g/m*3 -1.6 C 0 km/h
Sensor: Nr:Datum:Temp:Abs-Feuchte:Windchill:Wind:
Aussen-T/F 101 03-01-2011 20:05:02 -2.1 C 3.73 g/m*3 -2.1 C 0 km/h
102 03-01-2011 20:17:02 -2.3 C 3.67 g/m*3 -2.3 C 0 km/h
103 03-01-2011 20:29:02 -1.8 C 3.8 g/m*3 -1.8 C 0 km/h
104 03-01-2011 20:41:01 -1.8 C 3.85 g/m*3 -1.8 C 0 km/h
105 03-01-2011 20:53:02 -2 C 3.75 g/m*3 -2 C 0 km/h
106 03-01-2011 21:05:02 -2.3 C 3.67 g/m*3 -2.3 C 0 km/h
107 03-01-2011 21:17:03 -2.7 C 3.57 g/m*3 -2.7 C 0 km/h
108 03-01-2011 21:29:03 -3 C 3.5 g/m*3 -3 C 0 km/h
109 03-01-2011 21:41:02 -2.5 C 3.62 g/m*3 -2.5 C 0 km/h
110 03-01-2011 21:53:02 -2 C 3.79 g/m*3 -2 C 0 km/h
111 03-01-2011 22:05:02 -1.7 C 3.87 g/m*3 -1.7 C 0 km/h
112 03-01-2011 22:18:03 -1.4 C 3.96 g/m*3 -1.4 C 0 km/h
113 03-01-2011 22:30:03 -1.5 C 3.93 g/m*3 -1.5 C 0 km/h
114 03-01-2011 22:42:03 -1.6 C 3.9 g/m*3 -1.6 C 0 km/h
115 03-01-2011 22:54:03 -1.8 C 3.85 g/m*3 -1.8 C 0 km/h
116 03-01-2011 23:06:03 -2.4 C 3.69 g/m*3 -2.4 C 0 km/h
117 03-01-2011 23:18:03 -2.9 C 3.56 g/m*3 -2.9 C 0 km/h
118 03-01-2011 23:30:03 -3.1 C 3.51 g/m*3 -3.1 C 0 km/h
119 03-01-2011 23:42:03 -3.2 C 3.49 g/m*3 -3.2 C 0 km/h
120 03-01-2011 23:54:03 -3.4 C 3.4 g/m*3 -3.4 C 0 km/h
121 04-01-2011 00:06:03 -3.4 C 3.44 g/m*3 -3.4 C 0 km/h
122 04-01-2011 00:18:03 -3.4 C 3.44 g/m*3 -3.4 C 0 km/h
123 04-01-2011 00:30:03 -3.8 C 3.34 g/m*3 -3.8 C 0 km/h
124 04-01-2011 00:42:03 -3.8 C 3.34 g/m*3 -3.8 C 0 km/h
125 04-01-2011 00:54:03 -3.8 C 3.34 g/m*3 -3.8 C 0 km/h
Sensor: Nr:Datum:Temp:Abs-Feuchte:Windchill:Wind:
Aussen-T/F 126 04-01-2011 01:06:03 -3.4 C 3.44 g/m*3 -3.4 C 0 km/h
127 04-01-2011 01:18:03 -3.9 C 3.32 g/m*3 -3.9 C 0 km/h
128 04-01-2011 01:30:04 -4.3 C 3.19 g/m*3 -4.3 C 0 km/h
129 04-01-2011 01:42:04 -4.2 C 3.21 g/m*3 -4.2 C 0 km/h
130 04-01-2011 01:54:04 -3.9 C 3.32 g/m*3 -3.9 C 0 km/h
131 04-01-2011 02:06:04 -3.4 C 3.44 g/m*3 -3.4 C 0 km/h
132 04-01-2011 02:18:04 -3.4 C 3.44 g/m*3 -3.4 C 0 km/h
133 04-01-2011 02:30:04 -3 C 3.54 g/m*3 -3 C 0 km/h
134 04-01-2011 02:42:04 -3.4 C 3.44 g/m*3 -3.4 C 0 km/h
135 04-01-2011 02:54:04 -3.3 C 3.46 g/m*3 -3.3 C 0 km/h
136 04-01-2011 03:06:04 -3.2 C 3.49 g/m*3 -3.2 C 0 km/h
137 04-01-2011 03:18:04 -3.4 C 3.4 g/m*3 -3.4 C 0 km/h
138 04-01-2011 03:30:04 -3.2 C 3.45 g/m*3 -3.2 C 0 km/h
139 04-01-2011 03:42:04 -3.1 C 3.51 g/m*3 -3.1 C 0 km/h
140 04-01-2011 03:54:04 -3 C 3.54 g/m*3 -3 C 0 km/h
141 04-01-2011 04:06:04 -3 C 3.54 g/m*3 -3 C 0 km/h
142 04-01-2011 04:18:04 -3.2 C 3.45 g/m*3 -3.2 C 0 km/h
143 04-01-2011 04:30:04 -3.5 C 3.37 g/m*3 -3.5 C 0 km/h
144 04-01-2011 04:42:04 -3.7 C 3.33 g/m*3 -3.7 C 0 km/h
145 04-01-2011 04:54:04 -3.8 C 3.3 g/m*3 -3.8 C 0 km/h
146 04-01-2011 05:06:04 -3.5 C 3.37 g/m*3 -3.5 C 0 km/h
147 04-01-2011 05:18:04 -3.4 C 3.4 g/m*3 -3.4 C 0 km/h
148 04-01-2011 05:30:04 -3.5 C 3.37 g/m*3 -3.5 C 0 km/h
149 04-01-2011 05:42:05 -4 C 3.22 g/m*3 -4 C 0 km/h
150 04-01-2011 05:54:05 -4.3 C 3.15 g/m*3 -4.3 C 0 km/h
Sensor: Nr:Datum:Temp:Abs-Feuchte:Windchill:Wind:
Aussen-T/F 151 04-01-2011 06:06:05 -4.5 C 3.11 g/m*3 -4.5 C 0 km/h
152 04-01-2011 06:18:05 -4.3 C 3.15 g/m*3 -4.3 C 0 km/h
153 04-01-2011 06:30:05 -4.1 C 3.2 g/m*3 -4.1 C 0 km/h
154 04-01-2011 06:42:05 -3.2 C 3.45 g/m*3 -3.2 C 0 km/h
155 04-01-2011 06:54:05 -3.1 C 3.47 g/m*3 -3.1 C 0 km/h
156 04-01-2011 07:06:05 -2.9 C 3.52 g/m*3 -2.9 C 0 km/h
157 04-01-2011 07:18:05 -2.9 C 3.52 g/m*3 -2.9 C 0 km/h
158 04-01-2011 07:30:05 -2.7 C 3.57 g/m*3 -2.7 C 0 km/h
159 04-01-2011 07:42:03 -2.6 C 3.6 g/m*3 -2.6 C 0 km/h
160 04-01-2011 07:54:02 -2.5 C 3.62 g/m*3 -2.5 C 0 km/h
161 04-01-2011 08:06:02 -2.3 C 3.71 g/m*3 -2.3 C 0 km/h
162 04-01-2011 08:18:02 -2.2 C 3.74 g/m*3 -2.2 C 0 km/h
163 04-01-2011 08:30:02 -2.1 C 3.77 g/m*3 -2.1 C 0 km/h
164 04-01-2011 08:42:02 -2.1 C 3.77 g/m*3 -2.1 C 0 km/h
165 04-01-2011 08:54:02 -2 C 3.79 g/m*3 -2 C 0 km/h
166 04-01-2011 09:06:02 -2 C 3.79 g/m*3 -2 C 0 km/h
167 04-01-2011 09:18:02 -1.9 C 3.82 g/m*3 -1.9 C 0 km/h
168 04-01-2011 09:30:02 -1.8 C 3.85 g/m*3 -1.8 C 0 km/h
169 04-01-2011 09:42:02 -1.9 C 3.82 g/m*3 -1.9 C 0 km/h
170 04-01-2011 09:54:02 -1.8 C 3.85 g/m*3 -1.8 C 0 km/h
171 04-01-2011 10:06:02 -1.4 C 3.96 g/m*3 -1.4 C 0 km/h
172 04-01-2011 10:18:02 -1.4 C 3.96 g/m*3 -1.4 C 0 km/h
173 04-01-2011 10:30:03 -1 C 4.07 g/m*3 -1 C 0 km/h
174 04-01-2011 10:42:02 -0.7 C 4.15 g/m*3 -0.7 C 0 km/h
175 04-01-2011 10:54:02 -0.6 C 4.18 g/m*3 -0.6 C 0 km/h
Sensor: Nr:Datum:Temp:Abs-Feuchte:Windchill:Wind:
Aussen-T/F 176 04-01-2011 11:06:01 -0.4 C 4.19 g/m*3 -0.4 C 0 km/h
177 04-01-2011 11:18:02 -0.3 C 4.22 g/m*3 -0.3 C 0 km/h
178 04-01-2011 11:30:02 -0.7 C 4.02 g/m*3 -0.7 C 0 km/h
179 04-01-2011 11:42:02 -0.3 C 3.99 g/m*3 -0.3 C 0 km/h
180 04-01-2011 11:54:03 -0.4 C 3.82 g/m*3 -0.4 C 0 km/h
181 04-01-2011 12:06:03 -0.4 C 3.63 g/m*3 -0.4 C 0 km/h
182 04-01-2011 12:18:03 -0.2 C 3.54 g/m*3 -0.2 C 0 km/h
183 04-01-2011 12:30:03 -0.2 C 3.44 g/m*3 -0.2 C 0 km/h
184 04-01-2011 12:42:03 -0.3 C 3.37 g/m*3 -0.3 C 0 km/h
185 04-01-2011 12:54:03 -0.2 C 3.35 g/m*3 -0.2 C 0 km/h
186 04-01-2011 13:06:03 -0.2 C 3.35 g/m*3 -0.2 C 0 km/h
187 04-01-2011 13:18:03 0 C 3.34 g/m*3 0 C 0 km/h
188 04-01-2011 13:30:03 0 C 3.39 g/m*3 0 C 0 km/h
189 04-01-2011 13:42:03 0.2 C 3.39 g/m*3 0.2 C 0 km/h
190 04-01-2011 13:54:03 0.5 C 3.51 g/m*3 0.5 C 0 km/h
191 04-01-2011 14:06:04 0.2 C 3.39 g/m*3 0.2 C 0 km/h
192 04-01-2011 14:18:04 0.2 C 3.34 g/m*3 0.2 C 0 km/h
193 04-01-2011 14:30:04 0.2 C 3.34 g/m*3 0.2 C 0 km/h
194 04-01-2011 14:42:04 0 C 3.29 g/m*3 0 C 0 km/h
195 04-01-2011 14:54:04 -0.3 C 3.27 g/m*3 -0.3 C 0 km/h
196 04-01-2011 15:06:04 -0.4 C 3.3 g/m*3 -0.4 C 0 km/h
197 04-01-2011 15:18:04 -0.9 C 3.19 g/m*3 -0.9 C 0 km/h
198 04-01-2011 15:30:04 -1.1 C 3.23 g/m*3 -1.1 C 0 km/h
199 04-01-2011 15:42:04 -1.1 C 3.28 g/m*3 -1.1 C 0 km/h
200 04-01-2011 15:54:04 -1.1 C 3.28 g/m*3 -1.1 C 0 km/h
Sensor: Nr:Datum:Temp:Abs-Feuchte:Windchill:Wind:
Aussen-T/F 201 04-01-2011 16:06:04 -1.1 C 3.28 g/m*3 -1.1 C 0 km/h
202 04-01-2011 16:18:04 -1.1 C 3.28 g/m*3 -1.1 C 0 km/h
203 04-01-2011 16:30:04 -1.2 C 3.25 g/m*3 -1.2 C 0 km/h
204 04-01-2011 16:42:04 -1.2 C 3.25 g/m*3 -1.2 C 0 km/h
205 04-01-2011 16:54:04 -1.3 C 3.23 g/m*3 -1.3 C 0 km/h
206 04-01-2011 17:06:04 -1.5 C 3.23 g/m*3 -1.5 C 0 km/h
207 04-01-2011 17:18:04 -1.9 C 3.18 g/m*3 -1.9 C 0 km/h
208 04-01-2011 17:30:04 -2.3 C 3.14 g/m*3 -2.3 C 0 km/h
209 04-01-2011 17:42:04 -2.2 C 3.24 g/m*3 -2.2 C 0 km/h
210 04-01-2011 17:54:03 -2.1 C 3.26 g/m*3 -2.1 C 0 km/h
211 04-01-2011 18:06:02 -2.1 C 3.22 g/m*3 -2.1 C 0 km/h
212 04-01-2011 18:18:03 -2.2 C 3.2 g/m*3 -2.2 C 0 km/h
213 04-01-2011 18:30:03 -2.1 C 3.22 g/m*3 -2.1 C 0 km/h
214 04-01-2011 18:42:03 -2.3 C 3.14 g/m*3 -2.3 C 0 km/h
215 04-01-2011 18:54:02 -2.4 C 3.11 g/m*3 -2.4 C 0 km/h
216 04-01-2011 19:06:02 -2.7 C 3.05 g/m*3 -2.7 C 0 km/h
217 04-01-2011 19:18:02 -3.4 C 2.94 g/m*3 -3.4 C 0 km/h
218 04-01-2011 19:30:02 -3.8 C 2.89 g/m*3 -3.8 C 0 km/h
219 04-01-2011 19:42:03 -4 C 2.89 g/m*3 -4 C 0 km/h
220 04-01-2011 19:54:02 -3.9 C 2.95 g/m*3 -3.9 C 0 km/h
221 04-01-2011 20:06:02 -3.7 C 2.99 g/m*3 -3.7 C 0 km/h
222 04-01-2011 20:18:02 -4 C 2.93 g/m*3 -4 C 0 km/h
223 04-01-2011 20:30:02 -4.2 C 2.89 g/m*3 -4.2 C 0 km/h
224 04-01-2011 20:42:02 -4.4 C 2.84 g/m*3 -4.4 C 0 km/h
225 04-01-2011 20:54:02 -4.7 C 2.78 g/m*3 -4.7 C 0 km/h
Sensor: Nr:Datum:Temp:Abs-Feuchte:Windchill:Wind:
Aussen-T/F 226 04-01-2011 21:06:03 -4.8 C 2.76 g/m*3 -4.8 C 0 km/h
227 04-01-2011 21:18:02 -4.1 C 2.98 g/m*3 -4.1 C 0 km/h
228 04-01-2011 21:30:02 -3.5 C 3.11 g/m*3 -3.5 C 0 km/h
229 04-01-2011 21:43:03 -3.2 C 3.06 g/m*3 -3.2 C 0 km/h
230 04-01-2011 21:55:03 -3 C 2.99 g/m*3 -3 C 0 km/h
231 04-01-2011 22:07:03 -2.9 C 2.93 g/m*3 -2.9 C 0 km/h
232 04-01-2011 22:19:03 -2.8 C 2.87 g/m*3 -2.8 C 0 km/h
233 04-01-2011 22:31:03 -2.8 C 2.87 g/m*3 -2.8 C 0 km/h
234 04-01-2011 22:43:03 -2.8 C 2.83 g/m*3 -2.8 C 0 km/h
235 04-01-2011 22:55:03 -2.8 C 2.83 g/m*3 -2.8 C 0 km/h
236 04-01-2011 23:07:03 -2.8 C 2.83 g/m*3 -2.8 C 0 km/h
237 04-01-2011 23:19:03 -2.8 C 2.83 g/m*3 -2.8 C 0 km/h
238 04-01-2011 23:31:03 -2.8 C 2.83 g/m*3 -2.8 C 0 km/h
239 04-01-2011 23:43:04 -2.8 C 2.83 g/m*3 -2.8 C 0 km/h
240 04-01-2011 23:55:04 -2.9 C 2.85 g/m*3 -2.9 C 0 km/h
241 05-01-2011 00:07:04 -2.8 C 2.87 g/m*3 -2.8 C 0 km/h
242 05-01-2011 00:19:04 -2.8 C 2.87 g/m*3 -2.8 C 0 km/h
243 05-01-2011 00:31:04 -2.9 C 2.89 g/m*3 -2.9 C 0 km/h
244 05-01-2011 00:43:04 -2.9 C 2.89 g/m*3 -2.9 C 0 km/h
245 05-01-2011 00:55:04 -3 C 2.87 g/m*3 -3 C 0 km/h
246 05-01-2011 01:07:04 -3 C 2.83 g/m*3 -3 C 0 km/h
247 05-01-2011 01:19:04 -3 C 2.75 g/m*3 -3 C 0 km/h
248 05-01-2011 01:31:04 -2.9 C 2.73 g/m*3 -2.9 C 0 km/h
249 05-01-2011 01:43:04 -3 C 2.67 g/m*3 -3 C 0 km/h
250 05-01-2011 01:55:04 -3 C 2.71 g/m*3 -3 C 0 km/h
Sensor: Nr:Datum:Temp:Abs-Feuchte:Windchill:Wind:
Aussen-T/F 251 05-01-2011 02:07:04 -3 C 2.75 g/m*3 -3 C 0 km/h
252 05-01-2011 02:19:04 -2.9 C 2.73 g/m*3 -2.9 C 0 km/h
253 05-01-2011 02:31:04 -2.9 C 2.73 g/m*3 -2.9 C 0 km/h
254 05-01-2011 02:43:04 -2.9 C 2.77 g/m*3 -2.9 C 0 km/h
255 05-01-2011 02:55:04 -2.9 C 2.77 g/m*3 -2.9 C 0 km/h
256 05-01-2011 03:07:04 -3 C 2.75 g/m*3 -3 C 0 km/h
257 05-01-2011 03:19:04 -3 C 2.79 g/m*3 -3 C 0 km/h
258 05-01-2011 03:31:04 -2.9 C 2.77 g/m*3 -2.9 C 0 km/h
259 05-01-2011 03:43:05 -2.9 C 2.77 g/m*3 -2.9 C 0 km/h
260 05-01-2011 03:55:05 -3 C 2.71 g/m*3 -3 C 0 km/h
261 05-01-2011 04:07:05 -3.2 C 2.63 g/m*3 -3.2 C 0 km/h
262 05-01-2011 04:19:05 -3.4 C 2.6 g/m*3 -3.4 C 0 km/h
263 05-01-2011 04:31:05 -3.7 C 2.5 g/m*3 -3.7 C 0 km/h
264 05-01-2011 04:43:05 -3.7 C 2.5 g/m*3 -3.7 C 0 km/h
265 05-01-2011 04:55:05 -3.8 C 2.49 g/m*3 -3.8 C 0 km/h
266 05-01-2011 05:07:05 -3.9 C 2.51 g/m*3 -3.9 C 0 km/h
267 05-01-2011 05:19:05 -3.9 C 2.54 g/m*3 -3.9 C 0 km/h
268 05-01-2011 05:31:05 -4 C 2.52 g/m*3 -4 C 0 km/h
269 05-01-2011 05:43:05 -4.1 C 2.51 g/m*3 -4.1 C 0 km/h
270 05-01-2011 05:55:05 -4.4 C 2.42 g/m*3 -4.4 C 0 km/h
271 05-01-2011 06:07:05 -4.5 C 2.4 g/m*3 -4.5 C 0 km/h
272 05-01-2011 06:19:05 -4.7 C 2.37 g/m*3 -4.7 C 0 km/h
273 05-01-2011 06:31:05 -4.8 C 2.38 g/m*3 -4.8 C 0 km/h
274 05-01-2011 06:43:05 -5.2 C 2.32 g/m*3 -5.2 C 0 km/h
275 05-01-2011 06:55:05 -5.2 C 2.35 g/m*3 -5.2 C 0 km/h
Sensor: Nr:Datum:Temp:Abs-Feuchte:Windchill:Wind:
Aussen-T/F 276 05-01-2011 07:07:05 -5.3 C 2.33 g/m*3 -5.3 C 0 km/h
277 05-01-2011 07:19:05 -5.7 C 2.27 g/m*3 -5.7 C 0 km/h
278 05-01-2011 07:31:03 -6.1 C 2.2 g/m*3 -6.1 C 0 km/h
279 05-01-2011 07:43:03 -6.2 C 2.25 g/m*3 -6.2 C 0 km/h
280 05-01-2011 07:55:02 -6.9 C 2.14 g/m*3 -6.9 C 0 km/h
281 05-01-2011 08:07:02 -7.1 C 2.16 g/m*3 -7.1 C 0 km/h
282 05-01-2011 08:19:02 -7.2 C 2.18 g/m*3 -7.2 C 0 km/h
283 05-01-2011 08:31:02 -7.4 C 2.17 g/m*3 -7.4 C 0 km/h
284 05-01-2011 08:43:02 -7.6 C 2.17 g/m*3 -7.6 C 0 km/h
285 05-01-2011 08:55:02 -8 C 2.11 g/m*3 -8 C 0 km/h
286 05-01-2011 09:07:01 -7.5 C 2.21 g/m*3 -7.5 C 0 km/h
287 05-01-2011 09:19:02 -7.4 C 2.23 g/m*3 -7.4 C 0 km/h
288 05-01-2011 09:31:02 -6.6 C 2.36 g/m*3 -6.6 C 0 km/h
289 05-01-2011 09:43:02 -6.1 C 2.45 g/m*3 -6.1 C 0 km/h
290 05-01-2011 09:55:01 -5.6 C 2.48 g/m*3 -5.6 C 0 km/h
291 05-01-2011 10:07:02 -5 C 2.49 g/m*3 -5 C 0 km/h
292 05-01-2011 10:19:02 -4.7 C 2.44 g/m*3 -4.7 C 0 km/h
293 05-01-2011 10:31:01 -4.2 C 2.42 g/m*3 -4.2 C 0 km/h
294 05-01-2011 10:43:01 -3.9 C 2.43 g/m*3 -3.9 C 0 km/h
295 05-01-2011 10:55:02 -3.5 C 2.43 g/m*3 -3.5 C 0 km/h
296 05-01-2011 11:07:01 -3.3 C 2.42 g/m*3 -3.3 C 0 km/h
297 05-01-2011 11:19:02 -2.8 C 2.43 g/m*3 -2.8 C 0 km/h
298 05-01-2011 11:31:01 -3.4 C 2.33 g/m*3 -3.4 C 0 km/h
299 05-01-2011 11:43:01 -3.5 C 2.31 g/m*3 -3.5 C 0 km/h
300 05-01-2011 11:55:03 -3 C 2.4 g/m*3 -3 C 0 km/h
Sensor: Nr:Datum:Temp:Abs-Feuchte:Windchill:Wind:
Aussen-T/F 301 05-01-2011 12:07:02 -3.2 C 2.28 g/m*3 -3.2 C 0 km/h
302 05-01-2011 12:19:02 -3.7 C 2.32 g/m*3 -3.7 C 0 km/h
303 05-01-2011 12:31:03 -3.8 C 2.34 g/m*3 -3.8 C 0 km/h
304 05-01-2011 12:43:03 -3.9 C 2.36 g/m*3 -3.9 C 0 km/h
305 05-01-2011 12:55:02 -3.8 C 2.41 g/m*3 -3.8 C 0 km/h
306 05-01-2011 13:07:02 -3.7 C 2.47 g/m*3 -3.7 C 0 km/h
307 05-01-2011 13:19:02 -3.6 C 2.41 g/m*3 -3.6 C 0 km/h
308 05-01-2011 13:31:02 -3.7 C 2.39 g/m*3 -3.7 C 0 km/h
309 05-01-2011 13:43:02 -4 C 2.41 g/m*3 -4 C 0 km/h
310 05-01-2011 13:55:02 -3.8 C 2.45 g/m*3 -3.8 C 0 km/h
311 05-01-2011 14:07:02 -3.7 C 2.47 g/m*3 -3.7 C 0 km/h
312 05-01-2011 14:19:02 -3.3 C 2.54 g/m*3 -3.3 C 0 km/h
313 05-01-2011 14:31:02 -3.3 C 2.54 g/m*3 -3.3 C 0 km/h
314 05-01-2011 14:43:02 -3.3 C 2.54 g/m*3 -3.3 C 0 km/h
315 05-01-2011 14:55:01 -3.3 C 2.54 g/m*3 -3.3 C 0 km/h
316 05-01-2011 15:07:02 -3.6 C 2.52 g/m*3 -3.6 C 0 km/h
317 05-01-2011 15:19:01 -3.8 C 2.52 g/m*3 -3.8 C 0 km/h
318 05-01-2011 15:31:02 -3.8 C 2.6 g/m*3 -3.8 C 0 km/h
319 05-01-2011 15:43:02 -3.7 C 2.62 g/m*3 -3.7 C 0 km/h
320 05-01-2011 15:55:01 -3.8 C 2.56 g/m*3 -3.8 C 0 km/h
321 05-01-2011 16:07:02 -3.9 C 2.54 g/m*3 -3.9 C 0 km/h
322 05-01-2011 16:19:01 -4.2 C 2.56 g/m*3 -4.2 C 0 km/h
323 05-01-2011 16:31:02 -4.5 C 2.54 g/m*3 -4.5 C 0 km/h
324 05-01-2011 16:43:02 -4.8 C 2.56 g/m*3 -4.8 C 0 km/h
325 05-01-2011 16:55:01 -4.8 C 2.59 g/m*3 -4.8 C 0 km/h
Sensor: Nr:Datum:Temp:Abs-Feuchte:Windchill:Wind:
Aussen-T/F 326 05-01-2011 17:07:02 -5.1 C 2.57 g/m*3 -5.1 C 0 km/h
327 05-01-2011 17:19:02 -5.8 C 2.47 g/m*3 -5.8 C 0 km/h
328 05-01-2011 17:31:01 -6 C 2.47 g/m*3 -6 C 0 km/h
329 05-01-2011 17:43:01 -5.8 C 2.54 g/m*3 -5.8 C 0 km/h
330 05-01-2011 17:55:02 -5.8 C 2.57 g/m*3 -5.8 C 0 km/h
331 05-01-2011 18:07:01 -5.7 C 2.59 g/m*3 -5.7 C 0 km/h
332 05-01-2011 18:19:02 -6 C 2.53 g/m*3 -6 C 0 km/h
333 05-01-2011 18:31:01 -6.1 C 2.52 g/m*3 -6.1 C 0 km/h
334 05-01-2011 18:43:01 -5.5 C 2.66 g/m*3 -5.5 C 0 km/h
335 05-01-2011 18:55:03 -5.2 C 2.72 g/m*3 -5.2 C 0 km/h
336 05-01-2011 19:07:02 -5.4 C 2.65 g/m*3 -5.4 C 0 km/h
337 05-01-2011 19:19:02 -4.3 C 2.9 g/m*3 -4.3 C 0 km/h
338 05-01-2011 19:31:02 -3.4 C 3.05 g/m*3 -3.4 C 0 km/h
339 05-01-2011 19:43:02 -3.2 C 3.02 g/m*3 -3.2 C 0 km/h
340 05-01-2011 19:55:02 -3 C 3.02 g/m*3 -3 C 0 km/h
341 05-01-2011 20:07:02 -2.8 C 3.07 g/m*3 -2.8 C 0 km/h
342 05-01-2011 20:19:02 -2.8 C 3.07 g/m*3 -2.8 C 0 km/h
343 05-01-2011 20:31:02 -2.7 C 3.09 g/m*3 -2.7 C 0 km/h
344 05-01-2011 20:43:02 -2.5 C 3.05 g/m*3 -2.5 C 0 km/h
345 05-01-2011 20:55:02 -2.5 C 3.05 g/m*3 -2.5 C 0 km/h
346 05-01-2011 21:07:01 -2.4 C 3.11 g/m*3 -2.4 C 0 km/h
347 05-01-2011 21:19:01 -1.8 C 3.16 g/m*3 -1.8 C 0 km/h
348 05-01-2011 21:31:02 -1.5 C 3.19 g/m*3 -1.5 C 0 km/h
349 05-01-2011 21:43:02 -1.4 C 3.25 g/m*3 -1.4 C 0 km/h
350 05-01-2011 21:55:02 -1.3 C 3.32 g/m*3 -1.3 C 0 km/h
Sensor: Nr:Datum:Temp:Abs-Feuchte:Windchill:Wind:
Aussen-T/F 351 05-01-2011 22:07:02 -1.3 C 3.36 g/m*3 -1.3 C 0 km/h
352 05-01-2011 22:20:04 -1.2 C 3.43 g/m*3 -1.2 C 0 km/h
353 05-01-2011 22:32:04 -1.1 C 3.5 g/m*3 -1.1 C 0 km/h
354 05-01-2011 22:44:04 -1 C 3.57 g/m*3 -1 C 0 km/h
355 05-01-2011 22:56:04 -0.7 C 3.65 g/m*3 -0.7 C 0 km/h
356 05-01-2011 23:08:04 -0.5 C 3.74 g/m*3 -0.5 C 0 km/h
357 05-01-2011 23:20:04 -0.3 C 3.8 g/m*3 -0.3 C 0 km/h
358 05-01-2011 23:32:04 -0.3 C 3.8 g/m*3 -0.3 C 0 km/h
359 05-01-2011 23:44:04 -0.8 C 3.71 g/m*3 -0.8 C 0 km/h
360 05-01-2011 23:56:04 -0.9 C 3.73 g/m*3 -0.9 C 0 km/h
361 06-01-2011 00:08:04 -0.7 C 3.83 g/m*3 -0.7 C 0 km/h
362 06-01-2011 00:20:04 -0.5 C 3.84 g/m*3 -0.5 C 0 km/h
363 06-01-2011 00:32:04 -0.5 C 3.84 g/m*3 -0.5 C 0 km/h
364 06-01-2011 00:44:04 -0.6 C 3.81 g/m*3 -0.6 C 0 km/h
365 06-01-2011 00:56:04 -0.6 C 3.81 g/m*3 -0.6 C 0 km/h
366 06-01-2011 01:08:04 -0.5 C 3.88 g/m*3 -0.5 C 0 km/h
367 06-01-2011 01:20:04 -0.3 C 3.94 g/m*3 -0.3 C 0 km/h
368 06-01-2011 01:32:04 -0.3 C 3.94 g/m*3 -0.3 C 0 km/h
369 06-01-2011 01:44:04 -0.1 C 3.99 g/m*3 -0.1 C 0 km/h
370 06-01-2011 01:56:04 0.1 C 4.1 g/m*3 0.1 C 0 km/h
371 06-01-2011 02:08:04 0.2 C 4.18 g/m*3 0.2 C 0 km/h
372 06-01-2011 02:20:05 0.3 C 4.25 g/m*3 0.3 C 0 km/h
373 06-01-2011 02:32:05 0.3 C 4.3 g/m*3 0.3 C 0 km/h
374 06-01-2011 02:44:05 0.3 C 4.35 g/m*3 0.3 C 0 km/h
375 06-01-2011 02:56:05 0.4 C 4.38 g/m*3 0.4 C 0 km/h
Sensor: Nr:Datum:Temp:Abs-Feuchte:Windchill:Wind:
Aussen-T/F 376 06-01-2011 03:08:05 0.5 C 4.46 g/m*3 0.5 C 0 km/h
377 06-01-2011 03:20:05 0.5 C 4.46 g/m*3 0.5 C 0 km/h
378 06-01-2011 03:32:05 0.8 C 4.61 g/m*3 0.8 C 0 km/h
379 06-01-2011 03:44:05 0.7 C 4.58 g/m*3 0.7 C 0 km/h
380 06-01-2011 03:56:05 0.7 C 4.58 g/m*3 0.7 C 0 km/h
381 06-01-2011 04:08:05 0.8 C 4.66 g/m*3 0.8 C 0 km/h
382 06-01-2011 04:20:05 0.9 C 4.69 g/m*3 0.9 C 0 km/h
383 06-01-2011 04:32:05 0.9 C 4.69 g/m*3 0.9 C 0 km/h
384 06-01-2011 04:44:05 0.9 C 4.69 g/m*3 0.9 C 0 km/h
385 06-01-2011 04:56:05 0.9 C 4.69 g/m*3 0.9 C 0 km/h
386 06-01-2011 05:08:05 1 C 4.72 g/m*3 1 C 0 km/h
387 06-01-2011 05:20:05 1 C 4.72 g/m*3 1 C 0 km/h
388 06-01-2011 05:32:05 1 C 4.72 g/m*3 1 C 0 km/h
389 06-01-2011 05:44:05 1.1 C 4.76 g/m*3 1.1 C 0 km/h
390 06-01-2011 05:56:05 1.1 C 4.76 g/m*3 1.1 C 0 km/h
391 06-01-2011 06:08:05 1.3 C 4.87 g/m*3 1.3 C 0 km/h
392 06-01-2011 06:20:05 1.2 C 4.84 g/m*3 1.2 C 0 km/h
393 06-01-2011 06:32:06 1.2 C 4.84 g/m*3 1.2 C 0 km/h
394 06-01-2011 06:44:06 1.3 C 4.87 g/m*3 1.3 C 0 km/h
395 06-01-2011 06:56:02 1.3 C 4.87 g/m*3 1.3 C 0 km/h
396 06-01-2011 07:08:03 1.4 C 4.91 g/m*3 1.4 C 0 km/h
397 06-01-2011 07:20:02 1.4 C 4.91 g/m*3 1.4 C 0 km/h
398 06-01-2011 07:32:02 1.3 C 4.87 g/m*3 1.3 C 0 km/h
399 06-01-2011 07:44:02 1.4 C 4.91 g/m*3 1.4 C 0 km/h
400 06-01-2011 07:56:02 1.4 C 4.91 g/m*3 1.4 C 0 km/h
Sensor: Nr:Datum:Temp:Abs-Feuchte:Windchill:Wind:
Aussen-T/F 401 06-01-2011 08:08:02 1.4 C 4.91 g/m*3 1.4 C 0 km/h
402 06-01-2011 08:20:01 1.4 C 4.91 g/m*3 1.4 C 0 km/h
403 06-01-2011 08:32:02 1.5 C 4.94 g/m*3 1.5 C 0 km/h
404 06-01-2011 08:44:02 1.5 C 4.94 g/m*3 1.5 C 0 km/h
405 06-01-2011 08:56:02 1.9 C 5.13 g/m*3 1.9 C 0 km/h
406 06-01-2011 09:08:02 2 C 5.11 g/m*3 2 C 0 km/h
407 06-01-2011 09:20:01 2.2 C 5.18 g/m*3 2.2 C 0 km/h
408 06-01-2011 09:32:02 2.3 C 5.22 g/m*3 2.3 C 0 km/h
409 06-01-2011 09:44:02 2.5 C 5.29 g/m*3 2.5 C 0 km/h
410 06-01-2011 09:56:02 3.7 C 5.73 g/m*3 3.7 C 0 km/h
411 06-01-2011 10:08:03 3.8 C 5.83 g/m*3 3.8 C 0 km/h
412 06-01-2011 10:20:02 4.1 C 5.89 g/m*3 4.1 C 0 km/h
413 06-01-2011 10:32:02 4.4 C 6.01 g/m*3 4.4 C 0 km/h
414 06-01-2011 10:44:02 5.1 C 6.22 g/m*3 5.1 C 0 km/h
415 06-01-2011 10:56:01 5.1 C 6.22 g/m*3 5.1 C 0 km/h
416 06-01-2011 11:08:02 5.5 C 6.32 g/m*3 5.5 C 0 km/h
417 06-01-2011 11:20:01 5.9 C 6.35 g/m*3 5.9 C 0 km/h
418 06-01-2011 11:32:01 6.1 C 6.21 g/m*3 6.1 C 0 km/h
419 06-01-2011 11:44:01 6.3 C 6.22 g/m*3 6.3 C 0 km/h
420 06-01-2011 11:56:01 6.6 C 6.27 g/m*3 6.6 C 0 km/h
421 06-01-2011 12:08:01 5.5 C 5.69 g/m*3 5.5 C 0 km/h
422 06-01-2011 12:20:02 5.2 C 5.71 g/m*3 5.2 C 0 km/h
423 06-01-2011 12:32:01 5.6 C 5.94 g/m*3 5.6 C 0 km/h
424 06-01-2011 12:44:01 5.2 C 5.78 g/m*3 5.2 C 0 km/h
425 06-01-2011 12:56:03 5.2 C 5.85 g/m*3 5.2 C 0 km/h
Sensor: Nr:Datum:Temp:Abs-Feuchte:Windchill:Wind:
Aussen-T/F 426 06-01-2011 13:08:02 4.9 C 5.81 g/m*3 4.9 C 0 km/h
427 06-01-2011 13:20:02 4.8 C 5.83 g/m*3 4.8 C 0 km/h
428 06-01-2011 13:32:02 4.5 C 5.65 g/m*3 4.5 C 0 km/h
429 06-01-2011 13:44:02 4.2 C 5.61 g/m*3 4.2 C 0 km/h
430 06-01-2011 13:56:02 4.1 C 5.57 g/m*3 4.1 C 0 km/h
431 06-01-2011 14:08:01 4.3 C 5.64 g/m*3 4.3 C 0 km/h
432 06-01-2011 14:20:02 4.2 C 5.61 g/m*3 4.2 C 0 km/h
433 06-01-2011 14:32:02 4.3 C 5.64 g/m*3 4.3 C 0 km/h
434 06-01-2011 14:44:02 4 C 5.53 g/m*3 4 C 0 km/h
435 06-01-2011 14:56:02 3.8 C 5.52 g/m*3 3.8 C 0 km/h
436 06-01-2011 15:08:03 3.9 C 5.62 g/m*3 3.9 C 0 km/h
437 06-01-2011 15:20:02 3.8 C 5.58 g/m*3 3.8 C 0 km/h
438 06-01-2011 15:32:02 4 C 5.59 g/m*3 4 C 0 km/h
439 06-01-2011 15:44:02 4 C 5.66 g/m*3 4 C 0 km/h
440 06-01-2011 15:56:01 4 C 5.66 g/m*3 4 C 0 km/h
441 06-01-2011 16:08:02 4 C 5.66 g/m*3 4 C 0 km/h
442 06-01-2011 16:20:01 4.2 C 5.73 g/m*3 4.2 C 0 km/h
443 06-01-2011 16:32:01 4 C 5.66 g/m*3 4 C 0 km/h
444 06-01-2011 16:44:01 3.7 C 5.61 g/m*3 3.7 C 0 km/h
445 06-01-2011 16:56:01 3.7 C 5.61 g/m*3 3.7 C 0 km/h
446 06-01-2011 17:08:02 3.8 C 5.65 g/m*3 3.8 C 0 km/h
447 06-01-2011 17:20:02 4 C 5.72 g/m*3 4 C 0 km/h
448 06-01-2011 17:32:01 4.2 C 5.8 g/m*3 4.2 C 0 km/h
449 06-01-2011 17:44:01 4.1 C 5.76 g/m*3 4.1 C 0 km/h
450 06-01-2011 17:56:01 4.6 C 6.02 g/m*3 4.6 C 0 km/h
Sensor: Nr:Datum:Temp:Abs-Feuchte:Windchill:Wind:
Aussen-T/F 451 06-01-2011 18:08:01 4.6 C 6.02 g/m*3 4.6 C 0 km/h
452 06-01-2011 18:20:02 4.3 C 5.9 g/m*3 4.3 C 0 km/h
453 06-01-2011 18:32:01 4.6 C 6.02 g/m*3 4.6 C 0 km/h
454 06-01-2011 18:44:01 4.5 C 5.98 g/m*3 4.5 C 0 km/h
455 06-01-2011 18:56:02 5 C 6.18 g/m*3 5 C 0 km/h
456 06-01-2011 19:08:02 4.7 C 6.13 g/m*3 4.7 C 0 km/h
457 06-01-2011 19:20:02 4.6 C 6.09 g/m*3 4.6 C 0 km/h
458 06-01-2011 19:32:03 4.9 C 6.21 g/m*3 4.9 C 0 km/h
459 06-01-2011 19:44:03 5.3 C 6.31 g/m*3 5.3 C 0 km/h
460 06-01-2011 19:56:02 5.6 C 6.43 g/m*3 5.6 C 0 km/h
461 06-01-2011 20:08:01 7 C 7.05 g/m*3 7 C 0 km/h
462 06-01-2011 20:20:01 8 C 7.44 g/m*3 8 C 0 km/h
463 06-01-2011 20:32:02 6.7 C 6.91 g/m*3 6.7 C 0 km/h
464 06-01-2011 20:44:02 8.1 C 7.41 g/m*3 8.1 C 0 km/h
465 06-01-2011 20:56:02 7 C 6.9 g/m*3 7 C 0 km/h
466 06-01-2011 21:08:02 7.3 C 7.03 g/m*3 7.3 C 0 km/h
467 06-01-2011 21:20:02 8.2 C 7.37 g/m*3 8.2 C 0 km/h
468 06-01-2011 21:32:02 9 C 7.58 g/m*3 9 C 0 km/h
469 06-01-2011 21:44:02 8.9 C 7.36 g/m*3 8.9 C 0 km/h
470 06-01-2011 21:56:02 9.4 C 7.42 g/m*3 9.4 C 0 km/h
471 06-01-2011 22:08:03 9.2 C 7.14 g/m*3 9.2 C 0 km/h
472 06-01-2011 22:21:04 10 C 7.24 g/m*3 10 C 0 km/h
473 06-01-2011 22:33:04 9.8 C 7.33 g/m*3 9.8 C 0 km/h
474 06-01-2011 22:45:04 9.1 C 6.92 g/m*3 9.1 C 0 km/h
475 06-01-2011 22:57:04 9.4 C 7.05 g/m*3 9.4 C 0 km/h
Sensor: Nr:Datum:Temp:Abs-Feuchte:Windchill:Wind:
Aussen-T/F 476 06-01-2011 23:09:04 8.8 C 6.7 g/m*3 8.8 C 0 km/h
477 06-01-2011 23:21:04 9.1 C 6.83 g/m*3 9.1 C 0 km/h
478 06-01-2011 23:33:04 9 C 7.14 g/m*3 9 C 0 km/h
479 06-01-2011 23:45:04 9.7 C 7.47 g/m*3 9.7 C 0 km/h
480 06-01-2011 23:57:04 8.8 C 6.88 g/m*3 8.8 C 0 km/h
481 07-01-2011 00:09:04 8.5 C 6.83 g/m*3 8.5 C 0 km/h
482 07-01-2011 00:21:04 7.6 C 6.61 g/m*3 7.6 C 0 km/h
483 07-01-2011 00:33:04 7 C 6.51 g/m*3 7 C 0 km/h
484 07-01-2011 00:45:04 7.3 C 6.79 g/m*3 7.3 C 0 km/h
485 07-01-2011 00:57:04 6.5 C 6.45 g/m*3 6.5 C 0 km/h
486 07-01-2011 01:09:04 6.4 C 6.48 g/m*3 6.4 C 0 km/h
487 07-01-2011 01:21:04 6.5 C 6.52 g/m*3 6.5 C 0 km/h
488 07-01-2011 01:33:04 6.8 C 6.73 g/m*3 6.8 C 0 km/h
489 07-01-2011 01:45:05 6.9 C 6.85 g/m*3 6.9 C 0 km/h
490 07-01-2011 01:57:05 6.6 C 6.72 g/m*3 6.6 C 0 km/h
491 07-01-2011 02:09:05 6 C 6.46 g/m*3 6 C 0 km/h
492 07-01-2011 02:21:05 5.8 C 6.45 g/m*3 5.8 C 0 km/h
493 07-01-2011 02:33:05 5.7 C 6.4 g/m*3 5.7 C 0 km/h
494 07-01-2011 02:45:05 5.8 C 6.45 g/m*3 5.8 C 0 km/h
495 07-01-2011 02:57:05 5.8 C 6.52 g/m*3 5.8 C 0 km/h
496 07-01-2011 03:09:05 5.7 C 6.48 g/m*3 5.7 C 0 km/h
497 07-01-2011 03:21:05 5.6 C 6.43 g/m*3 5.6 C 0 km/h
498 07-01-2011 03:33:05 5.6 C 6.43 g/m*3 5.6 C 0 km/h
499 07-01-2011 03:45:05 5.6 C 6.43 g/m*3 5.6 C 0 km/h
500 07-01-2011 03:57:05 5.6 C 6.43 g/m*3 5.6 C 0 km/h
Sensor: Nr:Datum:Temp:Abs-Feuchte:Windchill:Wind:
Aussen-T/F 501 07-01-2011 04:09:05 5.6 C 6.43 g/m*3 5.6 C 0 km/h
502 07-01-2011 04:21:05 5.5 C 6.39 g/m*3 5.5 C 0 km/h
503 07-01-2011 04:33:05 5.2 C 6.27 g/m*3 5.2 C 0 km/h
504 07-01-2011 04:45:05 5.2 C 6.27 g/m*3 5.2 C 0 km/h
505 07-01-2011 04:57:05 5.3 C 6.31 g/m*3 5.3 C 0 km/h
506 07-01-2011 05:09:05 5.6 C 6.5 g/m*3 5.6 C 0 km/h
507 07-01-2011 05:21:05 5.2 C 6.27 g/m*3 5.2 C 0 km/h
508 07-01-2011 05:33:05 5.3 C 6.38 g/m*3 5.3 C 0 km/h
509 07-01-2011 05:45:05 5.2 C 6.33 g/m*3 5.2 C 0 km/h
510 07-01-2011 05:57:06 5.1 C 6.22 g/m*3 5.1 C 0 km/h
511 07-01-2011 06:09:06 4.8 C 6.17 g/m*3 4.8 C 0 km/h
512 07-01-2011 06:21:06 4.9 C 6.21 g/m*3 4.9 C 0 km/h
513 07-01-2011 06:33:06 5 C 6.18 g/m*3 5 C 0 km/h
514 07-01-2011 06:45:06 5 C 6.18 g/m*3 5 C 0 km/h
515 07-01-2011 06:57:06 4.8 C 6.17 g/m*3 4.8 C 0 km/h
516 07-01-2011 07:09:06 5 C 6.25 g/m*3 5 C 0 km/h
517 07-01-2011 07:21:06 5 C 6.25 g/m*3 5 C 0 km/h
518 07-01-2011 07:33:06 5 C 6.25 g/m*3 5 C 0 km/h
519 07-01-2011 07:45:03 5.1 C 6.29 g/m*3 5.1 C 0 km/h
520 07-01-2011 07:57:03 5.1 C 6.29 g/m*3 5.1 C 0 km/h
521 07-01-2011 08:09:02 4.8 C 6.17 g/m*3 4.8 C 0 km/h
522 07-01-2011 08:21:03 4.9 C 6.21 g/m*3 4.9 C 0 km/h
523 07-01-2011 08:33:02 5 C 6.25 g/m*3 5 C 0 km/h
524 07-01-2011 08:45:03 4.9 C 6.21 g/m*3 4.9 C 0 km/h
525 07-01-2011 08:57:03 4.8 C 6.17 g/m*3 4.8 C 0 km/h
Sensor: Nr:Datum:Temp:Abs-Feuchte:Windchill:Wind:
Aussen-T/F 526 07-01-2011 09:09:02 4.7 C 6.13 g/m*3 4.7 C 0 km/h
527 07-01-2011 09:21:02 4.7 C 6.13 g/m*3 4.7 C 0 km/h
528 07-01-2011 09:33:02 4.9 C 6.21 g/m*3 4.9 C 0 km/h
529 07-01-2011 09:45:02 5 C 6.25 g/m*3 5 C 0 km/h
530 07-01-2011 09:57:02 5.2 C 6.33 g/m*3 5.2 C 0 km/h
531 07-01-2011 10:09:02 5.3 C 6.38 g/m*3 5.3 C 0 km/h
532 07-01-2011 10:21:03 5.3 C 6.38 g/m*3 5.3 C 0 km/h
533 07-01-2011 10:33:02 5.6 C 6.5 g/m*3 5.6 C 0 km/h
534 07-01-2011 10:45:03 5.6 C 6.43 g/m*3 5.6 C 0 km/h
535 07-01-2011 10:57:03 5.7 C 6.48 g/m*3 5.7 C 0 km/h
536 07-01-2011 11:09:02 6 C 6.6 g/m*3 6 C 0 km/h
537 07-01-2011 11:21:02 6.7 C 6.91 g/m*3 6.7 C 0 km/h
538 07-01-2011 11:33:02 7.1 C 7.1 g/m*3 7.1 C 0 km/h
539 07-01-2011 11:45:02 7 C 7.05 g/m*3 7 C 0 km/h
540 07-01-2011 11:57:02 7 C 7.05 g/m*3 7 C 0 km/h
541 07-01-2011 12:09:02 7.2 C 7.14 g/m*3 7.2 C 0 km/h
542 07-01-2011 12:21:02 7.2 C 7.06 g/m*3 7.2 C 0 km/h
543 07-01-2011 12:33:02 7.3 C 7.11 g/m*3 7.3 C 0 km/h
544 07-01-2011 12:45:02 7.3 C 7.11 g/m*3 7.3 C 0 km/h
545 07-01-2011 12:57:02 7.4 C 7.16 g/m*3 7.4 C 0 km/h
546 07-01-2011 13:09:01 7.5 C 7.2 g/m*3 7.5 C 0 km/h
547 07-01-2011 13:21:01 7.4 C 7.16 g/m*3 7.4 C 0 km/h
548 07-01-2011 13:33:02 7.3 C 7.11 g/m*3 7.3 C 0 km/h
549 07-01-2011 13:45:02 7.4 C 7.08 g/m*3 7.4 C 0 km/h
550 07-01-2011 13:57:02 7.3 C 7.03 g/m*3 7.3 C 0 km/h
Sensor: Nr:Datum:Temp:Abs-Feuchte:Windchill:Wind:
Aussen-T/F 551 07-01-2011 14:09:02 7.4 C 7.08 g/m*3 7.4 C 0 km/h
552 07-01-2011 14:21:02 7.5 C 7.12 g/m*3 7.5 C 0 km/h
553 07-01-2011 14:33:02 7.5 C 7.2 g/m*3 7.5 C 0 km/h
554 07-01-2011 14:45:02 7.4 C 7.16 g/m*3 7.4 C 0 km/h
555 07-01-2011 14:57:02 7.3 C 7.11 g/m*3 7.3 C 0 km/h
556 07-01-2011 15:09:02 7.3 C 7.11 g/m*3 7.3 C 0 km/h
557 07-01-2011 15:21:02 7.3 C 7.11 g/m*3 7.3 C 0 km/h
558 07-01-2011 15:33:02 7.1 C 7.02 g/m*3 7.1 C 0 km/h
559 07-01-2011 15:45:02 7.1 C 7.02 g/m*3 7.1 C 0 km/h
560 07-01-2011 15:57:02 7.1 C 7.02 g/m*3 7.1 C 0 km/h
561 07-01-2011 16:09:02 6.9 C 7.01 g/m*3 6.9 C 0 km/h
562 07-01-2011 16:21:02 7.2 C 7.06 g/m*3 7.2 C 0 km/h
563 07-01-2011 16:33:03 7.1 C 7.02 g/m*3 7.1 C 0 km/h
564 07-01-2011 16:45:02 7 C 6.97 g/m*3 7 C 0 km/h
565 07-01-2011 16:57:02 7.1 C 7.02 g/m*3 7.1 C 0 km/h
566 07-01-2011 17:09:03 7.3 C 7.19 g/m*3 7.3 C 0 km/h
567 07-01-2011 17:21:02 7.3 C 7.19 g/m*3 7.3 C 0 km/h
568 07-01-2011 17:33:02 7.5 C 7.28 g/m*3 7.5 C 0 km/h
569 07-01-2011 17:45:01 7.7 C 7.38 g/m*3 7.7 C 0 km/h
570 07-01-2011 17:57:01 7.8 C 7.43 g/m*3 7.8 C 0 km/h
571 07-01-2011 18:09:02 8.3 C 7.67 g/m*3 8.3 C 0 km/h
572 07-01-2011 18:21:01 9.3 C 8.09 g/m*3 9.3 C 0 km/h
573 07-01-2011 18:33:01 9.3 C 8.09 g/m*3 9.3 C 0 km/h
574 07-01-2011 18:45:01 10 C 8.36 g/m*3 10 C 0 km/h
575 07-01-2011 18:57:01 9.7 C 8.2 g/m*3 9.7 C 0 km/h
Sensor: Nr:Datum:Temp:Abs-Feuchte:Windchill:Wind:
Aussen-T/F 576 07-01-2011 19:09:01 10.3 C 8.33 g/m*3 10.3 C 0 km/h
577 07-01-2011 19:21:02 9.8 C 7.98 g/m*3 9.8 C 0 km/h
578 07-01-2011 19:33:01 9.6 C 7.88 g/m*3 9.6 C 0 km/h
579 07-01-2011 19:45:03 8.9 C 7.53 g/m*3 8.9 C 0 km/h
580 07-01-2011 19:57:03 8.6 C 7.48 g/m*3 8.6 C 0 km/h
581 07-01-2011 20:09:03 8.5 C 7.51 g/m*3 8.5 C 0 km/h
582 07-01-2011 20:21:02 8.9 C 7.8 g/m*3 8.9 C 0 km/h
583 07-01-2011 20:33:03 9.2 C 7.95 g/m*3 9.2 C 0 km/h
584 07-01-2011 20:45:02 9 C 7.85 g/m*3 9 C 0 km/h
585 07-01-2011 20:57:03 8.9 C 7.8 g/m*3 8.9 C 0 km/h
586 07-01-2011 21:09:01 8.9 C 7.8 g/m*3 8.9 C 0 km/h
587 07-01-2011 21:21:02 8.9 C 7.88 g/m*3 8.9 C 0 km/h
588 07-01-2011 21:33:02 9 C 7.85 g/m*3 9 C 0 km/h
589 07-01-2011 21:45:02 9.1 C 7.9 g/m*3 9.1 C 0 km/h
590 07-01-2011 21:57:02 9.1 C 7.9 g/m*3 9.1 C 0 km/h
591 07-01-2011 22:09:02 9 C 7.76 g/m*3 9 C 0 km/h
592 07-01-2011 22:22:03 8.8 C 7.75 g/m*3 8.8 C 0 km/h
593 07-01-2011 22:34:03 8.6 C 7.65 g/m*3 8.6 C 0 km/h
594 07-01-2011 22:46:03 8.5 C 7.51 g/m*3 8.5 C 0 km/h
595 07-01-2011 22:58:03 8.6 C 7.65 g/m*3 8.6 C 0 km/h
596 07-01-2011 23:10:03 8.6 C 7.65 g/m*3 8.6 C 0 km/h
597 07-01-2011 23:22:03 8.5 C 7.6 g/m*3 8.5 C 0 km/h
598 07-01-2011 23:34:03 8.8 C 7.75 g/m*3 8.8 C 0 km/h
599 07-01-2011 23:46:03 8.9 C 7.8 g/m*3 8.9 C 0 km/h
600 07-01-2011 23:58:03 9 C 7.76 g/m*3 9 C 0 km/h
Sensor: Nr:Datum:Temp:Abs-Feuchte:Windchill:Wind:
Aussen-T/F 601 08-01-2011 00:10:03 9.2 C 7.77 g/m*3 9.2 C 0 km/h
602 08-01-2011 00:22:03 8.9 C 7.62 g/m*3 8.9 C 0 km/h
603 08-01-2011 00:34:03 8.7 C 7.52 g/m*3 8.7 C 0 km/h
604 08-01-2011 00:46:03 8.3 C 7.33 g/m*3 8.3 C 0 km/h
605 08-01-2011 00:58:03 8.1 C 7.24 g/m*3 8.1 C 0 km/h
606 08-01-2011 01:10:03 8 C 7.28 g/m*3 8 C 0 km/h
607 08-01-2011 01:22:03 7.7 C 7.22 g/m*3 7.7 C 0 km/h
608 08-01-2011 01:34:03 7.5 C 7.12 g/m*3 7.5 C 0 km/h
609 08-01-2011 01:46:03 7.1 C 6.94 g/m*3 7.1 C 0 km/h
610 08-01-2011 01:58:04 7 C 6.9 g/m*3 7 C 0 km/h
611 08-01-2011 02:10:04 6.9 C 6.93 g/m*3 6.9 C 0 km/h
612 08-01-2011 02:22:04 6.6 C 6.79 g/m*3 6.6 C 0 km/h
613 08-01-2011 02:34:04 6.7 C 6.91 g/m*3 6.7 C 0 km/h
614 08-01-2011 02:46:04 6.6 C 6.87 g/m*3 6.6 C 0 km/h
615 08-01-2011 02:58:04 6.8 C 6.96 g/m*3 6.8 C 0 km/h
616 08-01-2011 03:10:04 7 C 7.05 g/m*3 7 C 0 km/h
617 08-01-2011 03:22:04 7.9 C 7.56 g/m*3 7.9 C 0 km/h
618 08-01-2011 03:34:04 8.1 C 7.57 g/m*3 8.1 C 0 km/h
619 08-01-2011 03:46:04 8.5 C 7.77 g/m*3 8.5 C 0 km/h
620 08-01-2011 03:58:04 8.1 C 7.57 g/m*3 8.1 C 0 km/h
621 08-01-2011 04:10:04 7.9 C 7.56 g/m*3 7.9 C 0 km/h
622 08-01-2011 04:22:04 8.2 C 7.62 g/m*3 8.2 C 0 km/h
623 08-01-2011 04:34:04 8.1 C 7.57 g/m*3 8.1 C 0 km/h
624 08-01-2011 04:46:04 7.9 C 7.56 g/m*3 7.9 C 0 km/h
625 08-01-2011 04:58:04 7.3 C 7.27 g/m*3 7.3 C 0 km/h
Sensor: Nr:Datum:Temp:Abs-Feuchte:Windchill:Wind:
Aussen-T/F 626 08-01-2011 05:10:04 7.5 C 7.36 g/m*3 7.5 C 0 km/h
627 08-01-2011 05:22:04 8 C 7.52 g/m*3 8 C 0 km/h
628 08-01-2011 05:34:04 7.9 C 7.56 g/m*3 7.9 C 0 km/h
629 08-01-2011 05:46:04 8.1 C 7.66 g/m*3 8.1 C 0 km/h
630 08-01-2011 05:58:05 8.2 C 7.7 g/m*3 8.2 C 0 km/h
631 08-01-2011 06:10:05 8.2 C 7.7 g/m*3 8.2 C 0 km/h
632 08-01-2011 06:22:05 8.2 C 7.7 g/m*3 8.2 C 0 km/h
633 08-01-2011 06:34:05 8 C 7.61 g/m*3 8 C 0 km/h
634 08-01-2011 06:46:05 7.8 C 7.59 g/m*3 7.8 C 0 km/h
635 08-01-2011 06:58:05 7.7 C 7.54 g/m*3 7.7 C 0 km/h
636 08-01-2011 07:10:05 8 C 7.61 g/m*3 8 C 0 km/h
637 08-01-2011 07:22:05 8 C 7.61 g/m*3 8 C 0 km/h
638 08-01-2011 07:34:05 7.9 C 7.64 g/m*3 7.9 C 0 km/h
639 08-01-2011 07:46:05 8.3 C 7.75 g/m*3 8.3 C 0 km/h
640 08-01-2011 07:58:05 8.6 C 7.91 g/m*3 8.6 C 0 km/h
641 08-01-2011 08:10:05 8.5 C 7.85 g/m*3 8.5 C 0 km/h
642 08-01-2011 08:22:05 8.2 C 7.7 g/m*3 8.2 C 0 km/h
643 08-01-2011 08:34:05 7.9 C 7.64 g/m*3 7.9 C 0 km/h
644 08-01-2011 08:46:02 8.3 C 7.75 g/m*3 8.3 C 0 km/h
645 08-01-2011 08:58:02 8.8 C 8.09 g/m*3 8.8 C 0 km/h
646 08-01-2011 09:10:02 8.9 C 8.06 g/m*3 8.9 C 0 km/h
647 08-01-2011 09:22:02 9.1 C 8.07 g/m*3 9.1 C 0 km/h
648 08-01-2011 09:34:02 8.7 C 7.96 g/m*3 8.7 C 0 km/h
649 08-01-2011 09:46:02 8.5 C 7.85 g/m*3 8.5 C 0 km/h
650 08-01-2011 09:58:02 8.3 C 7.75 g/m*3 8.3 C 0 km/h
Sensor: Nr:Datum:Temp:Abs-Feuchte:Windchill:Wind:
Aussen-T/F 651 08-01-2011 10:10:01 8 C 7.61 g/m*3 8 C 0 km/h
652 08-01-2011 10:22:02 7.7 C 7.46 g/m*3 7.7 C 0 km/h
653 08-01-2011 10:34:01 7.6 C 7.41 g/m*3 7.6 C 0 km/h
654 08-01-2011 10:46:02 7.6 C 7.41 g/m*3 7.6 C 0 km/h
655 08-01-2011 10:58:03 8 C 7.52 g/m*3 8 C 0 km/h
656 08-01-2011 11:10:02 8.6 C 7.82 g/m*3 8.6 C 0 km/h
657 08-01-2011 11:22:02 9.3 C 8.09 g/m*3 9.3 C 0 km/h
658 08-01-2011 11:34:03 10.2 C 8.09 g/m*3 10.2 C 0 km/h
659 08-01-2011 11:46:02 10.9 C 7.96 g/m*3 10.9 C 0 km/h
660 08-01-2011 11:58:02 12 C 7.25 g/m*3 12 C 0 km/h
661 08-01-2011 12:10:02 12.1 C 6.97 g/m*3 12.1 C 0 km/h
662 08-01-2011 12:22:01 12.7 C 6.57 g/m*3 12.7 C 0 km/h
663 08-01-2011 12:34:02 13.1 C 6.39 g/m*3 13.1 C 0 km/h
664 08-01-2011 12:46:02 13.8 C 6.55 g/m*3 13.8 C 0 km/h
665 08-01-2011 12:58:02 13.8 C 6.43 g/m*3 13.8 C 0 km/h
666 08-01-2011 13:10:02 13.9 C 6.35 g/m*3 13.9 C 0 km/h
667 08-01-2011 13:22:01 14 C 6.27 g/m*3 14 C 0 km/h
668 08-01-2011 13:34:02 14.1 C 5.95 g/m*3 14.1 C 0 km/h
669 08-01-2011 13:46:02 14.4 C 5.93 g/m*3 14.4 C 0 km/h
670 08-01-2011 13:58:02 14.5 C 5.85 g/m*3 14.5 C 0 km/h
671 08-01-2011 14:10:02 14.5 C 5.85 g/m*3 14.5 C 0 km/h
672 08-01-2011 14:22:02 14.7 C 5.79 g/m*3 14.7 C 0 km/h
673 08-01-2011 14:34:02 14.5 C 5.85 g/m*3 14.5 C 0 km/h
674 08-01-2011 14:46:02 14.3 C 5.9 g/m*3 14.3 C 0 km/h
675 08-01-2011 14:58:02 14 C 5.91 g/m*3 14 C 0 km/h
Sensor: Nr:Datum:Temp:Abs-Feuchte:Windchill:Wind:
Aussen-T/F 676 08-01-2011 15:10:02 14.3 C 5.9 g/m*3 14.3 C 0 km/h
677 08-01-2011 15:22:02 14 C 6.03 g/m*3 14 C 0 km/h
678 08-01-2011 15:34:01 14 C 5.79 g/m*3 14 C 0 km/h
679 08-01-2011 15:46:02 14.2 C 5.74 g/m*3 14.2 C 0 km/h
680 08-01-2011 15:58:02 14.1 C 5.83 g/m*3 14.1 C 0 km/h
681 08-01-2011 16:10:01 14 C 5.79 g/m*3 14 C 0 km/h
682 08-01-2011 16:22:02 13.8 C 5.96 g/m*3 13.8 C 0 km/h
683 08-01-2011 16:34:02 12.8 C 6.05 g/m*3 12.8 C 0 km/h
684 08-01-2011 16:46:02 13.7 C 5.8 g/m*3 13.7 C 0 km/h
685 08-01-2011 16:58:02 13.7 C 5.68 g/m*3 13.7 C 0 km/h
686 08-01-2011 17:10:02 13.2 C 5.86 g/m*3 13.2 C 0 km/h
687 08-01-2011 17:22:02 13.4 C 5.93 g/m*3 13.4 C 0 km/h
688 08-01-2011 17:34:02 13.3 C 6.01 g/m*3 13.3 C 0 km/h
689 08-01-2011 17:46:01 13.5 C 5.85 g/m*3 13.5 C 0 km/h
690 08-01-2011 17:58:01 13 C 5.9 g/m*3 13 C 0 km/h
691 08-01-2011 18:10:02 13.5 C 5.97 g/m*3 13.5 C 0 km/h
692 08-01-2011 18:22:01 13.2 C 5.86 g/m*3 13.2 C 0 km/h
693 08-01-2011 18:34:01 13.7 C 5.8 g/m*3 13.7 C 0 km/h
694 08-01-2011 18:46:01 13.5 C 5.85 g/m*3 13.5 C 0 km/h
695 08-01-2011 18:58:01 13.3 C 5.89 g/m*3 13.3 C 0 km/h
696 08-01-2011 19:10:02 13 C 6.01 g/m*3 13 C 0 km/h
697 08-01-2011 19:22:01 13.1 C 5.93 g/m*3 13.1 C 0 km/h
698 08-01-2011 19:34:01 13.3 C 5.89 g/m*3 13.3 C 0 km/h
699 08-01-2011 19:46:01 13.2 C 5.86 g/m*3 13.2 C 0 km/h
700 08-01-2011 19:58:01 13.2 C 5.97 g/m*3 13.2 C 0 km/h
Sensor: Nr:Datum:Temp:Abs-Feuchte:Windchill:Wind:
Aussen-T/F 701 08-01-2011 20:10:02 13.2 C 5.97 g/m*3 13.2 C 0 km/h
702 08-01-2011 20:22:02 12.7 C 6.12 g/m*3 12.7 C 0 km/h
703 08-01-2011 20:34:01 11.8 C 6.53 g/m*3 11.8 C 0 km/h
704 08-01-2011 20:46:02 12.1 C 6.54 g/m*3 12.1 C 0 km/h
705 08-01-2011 20:58:02 11.8 C 6.53 g/m*3 11.8 C 0 km/h
706 08-01-2011 21:10:01 11.4 C 6.57 g/m*3 11.4 C 0 km/h
707 08-01-2011 21:22:02 11.8 C 6.63 g/m*3 11.8 C 0 km/h
708 08-01-2011 21:34:01 12.2 C 6.58 g/m*3 12.2 C 0 km/h
709 08-01-2011 21:46:02 12.5 C 6.82 g/m*3 12.5 C 0 km/h
710 08-01-2011 21:58:02 12.3 C 6.41 g/m*3 12.3 C 0 km/h
711 08-01-2011 22:10:03 12.5 C 6.38 g/m*3 12.5 C 0 km/h
712 08-01-2011 22:22:02 12.3 C 6.3 g/m*3 12.3 C 0 km/h
713 08-01-2011 22:35:03 11.8 C 6.63 g/m*3 11.8 C 0 km/h
714 08-01-2011 22:47:03 12.2 C 6.58 g/m*3 12.2 C 0 km/h
715 08-01-2011 22:59:03 10.9 C 6.86 g/m*3 10.9 C 0 km/h
716 08-01-2011 23:11:03 10.5 C 6.98 g/m*3 10.5 C 0 km/h
717 08-01-2011 23:23:03 10.6 C 7.12 g/m*3 10.6 C 0 km/h
718 08-01-2011 23:35:03 10.3 C 7.18 g/m*3 10.3 C 0 km/h
719 08-01-2011 23:47:03 10.2 C 7.14 g/m*3 10.2 C 0 km/h
720 08-01-2011 23:59:03 10 C 7.24 g/m*3 10 C 0 km/h
721 09-01-2011 00:11:03 9.8 C 7.42 g/m*3 9.8 C 0 km/h
722 09-01-2011 00:23:04 9.7 C 7.56 g/m*3 9.7 C 0 km/h
723 09-01-2011 00:35:04 9.6 C 7.69 g/m*3 9.6 C 0 km/h
724 09-01-2011 00:47:04 9.6 C 7.79 g/m*3 9.6 C 0 km/h
725 09-01-2011 00:59:04 9.5 C 7.83 g/m*3 9.5 C 0 km/h
Sensor: Nr:Datum:Temp:Abs-Feuchte:Windchill:Wind:
Aussen-T/F 726 09-01-2011 01:11:04 9.5 C 7.92 g/m*3 9.5 C 0 km/h
727 09-01-2011 01:23:04 9.7 C 8.02 g/m*3 9.7 C 0 km/h
728 09-01-2011 01:35:04 9.6 C 7.97 g/m*3 9.6 C 0 km/h
729 09-01-2011 01:47:04 9.7 C 8.02 g/m*3 9.7 C 0 km/h
730 09-01-2011 01:59:04 9.6 C 7.97 g/m*3 9.6 C 0 km/h
731 09-01-2011 02:11:04 9.8 C 8.07 g/m*3 9.8 C 0 km/h
732 09-01-2011 02:23:04 10 C 7.99 g/m*3 10 C 0 km/h
733 09-01-2011 02:35:04 9.8 C 7.98 g/m*3 9.8 C 0 km/h
734 09-01-2011 02:47:04 9.7 C 7.84 g/m*3 9.7 C 0 km/h
735 09-01-2011 02:59:04 9.6 C 7.79 g/m*3 9.6 C 0 km/h
736 09-01-2011 03:11:04 9.5 C 7.83 g/m*3 9.5 C 0 km/h
737 09-01-2011 03:23:04 9.4 C 7.78 g/m*3 9.4 C 0 km/h
738 09-01-2011 03:35:04 9.2 C 7.68 g/m*3 9.2 C 0 km/h
739 09-01-2011 03:47:04 9.2 C 7.77 g/m*3 9.2 C 0 km/h
740 09-01-2011 03:59:04 9.3 C 7.82 g/m*3 9.3 C 0 km/h
741 09-01-2011 04:11:04 9.7 C 7.93 g/m*3 9.7 C 0 km/h
742 09-01-2011 04:23:05 10.8 C 7.91 g/m*3 10.8 C 0 km/h
743 09-01-2011 04:35:05 11 C 7.51 g/m*3 11 C 0 km/h
744 09-01-2011 04:47:05 11.5 C 7.23 g/m*3 11.5 C 0 km/h
745 09-01-2011 04:59:05 11.6 C 7.28 g/m*3 11.6 C 0 km/h
746 09-01-2011 05:11:05 11.8 C 7.26 g/m*3 11.8 C 0 km/h
747 09-01-2011 05:23:05 11.5 C 7.23 g/m*3 11.5 C 0 km/h
748 09-01-2011 05:35:05 11.7 C 7.22 g/m*3 11.7 C 0 km/h
749 09-01-2011 05:47:05 11.1 C 7.15 g/m*3 11.1 C 0 km/h
750 09-01-2011 05:59:05 9.3 C 6.65 g/m*3 9.3 C 0 km/h
Sensor: Nr:Datum:Temp:Abs-Feuchte:Windchill:Wind:
Aussen-T/F 751 09-01-2011 06:11:05 8 C 6.45 g/m*3 8 C 0 km/h
752 09-01-2011 06:23:05 7.5 C 6.48 g/m*3 7.5 C 0 km/h
753 09-01-2011 06:35:05 7.2 C 6.52 g/m*3 7.2 C 0 km/h
754 09-01-2011 06:47:05 7 C 6.59 g/m*3 7 C 0 km/h
755 09-01-2011 06:59:05 6.8 C 6.65 g/m*3 6.8 C 0 km/h
756 09-01-2011 07:11:05 6.6 C 6.57 g/m*3 6.6 C 0 km/h
757 09-01-2011 07:23:05 6.4 C 6.48 g/m*3 6.4 C 0 km/h
758 09-01-2011 07:35:05 6.2 C 6.4 g/m*3 6.2 C 0 km/h
759 09-01-2011 07:47:05 5.8 C 6.3 g/m*3 5.8 C 0 km/h
760 09-01-2011 07:59:05 5.6 C 6.22 g/m*3 5.6 C 0 km/h
761 09-01-2011 08:11:05 5.5 C 6.18 g/m*3 5.5 C 0 km/h
762 09-01-2011 08:23:05 5.3 C 6.1 g/m*3 5.3 C 0 km/h
763 09-01-2011 08:35:06 5.3 C 6.1 g/m*3 5.3 C 0 km/h
764 09-01-2011 08:47:02 5 C 5.98 g/m*3 5 C 0 km/h
765 09-01-2011 08:59:03 4.7 C 5.86 g/m*3 4.7 C 0 km/h
766 09-01-2011 09:11:02 4.3 C 5.64 g/m*3 4.3 C 0 km/h
767 09-01-2011 09:23:02 4.3 C 5.58 g/m*3 4.3 C 0 km/h
768 09-01-2011 09:35:03 4 C 5.47 g/m*3 4 C 0 km/h
769 09-01-2011 09:47:01 3.8 C 5.46 g/m*3 3.8 C 0 km/h
770 09-01-2011 09:59:01 3.5 C 5.35 g/m*3 3.5 C 0 km/h
771 09-01-2011 10:11:02 3 C 5.17 g/m*3 3 C 0 km/h
772 09-01-2011 10:23:01 2.9 C 5.14 g/m*3 2.9 C 0 km/h
773 09-01-2011 10:35:01 2.8 C 5.1 g/m*3 2.8 C 0 km/h
774 09-01-2011 10:47:01 3 C 5.17 g/m*3 3 C 0 km/h
775 09-01-2011 10:59:01 3.4 C 5.31 g/m*3 3.4 C 0 km/h
Sensor: Nr:Datum:Temp:Abs-Feuchte:Windchill:Wind:
Aussen-T/F 776 09-01-2011 11:11:01 3.9 C 5.56 g/m*3 3.9 C 0 km/h
777 09-01-2011 11:23:02 4.1 C 5.5 g/m*3 4.1 C 0 km/h
778 09-01-2011 11:35:01 4.1 C 5.44 g/m*3 4.1 C 0 km/h
779 09-01-2011 11:47:02 4.1 C 5.38 g/m*3 4.1 C 0 km/h
780 09-01-2011 11:59:02 4.3 C 5.45 g/m*3 4.3 C 0 km/h
781 09-01-2011 12:11:01 4.3 C 5.38 g/m*3 4.3 C 0 km/h
782 09-01-2011 12:23:02 4.5 C 5.39 g/m*3 4.5 C 0 km/h
783 09-01-2011 12:35:01 4.6 C 5.36 g/m*3 4.6 C 0 km/h
784 09-01-2011 12:47:02 4.8 C 5.43 g/m*3 4.8 C 0 km/h
785 09-01-2011 12:59:02 4.6 C 5.36 g/m*3 4.6 C 0 km/h
786 09-01-2011 13:11:02 4.8 C 5.43 g/m*3 4.8 C 0 km/h
787 09-01-2011 13:23:02 5.1 C 5.34 g/m*3 5.1 C 0 km/h
788 09-01-2011 13:35:02 5.1 C 5.34 g/m*3 5.1 C 0 km/h
789 09-01-2011 13:47:02 5.2 C 5.23 g/m*3 5.2 C 0 km/h
790 09-01-2011 13:59:02 5.2 C 5.3 g/m*3 5.2 C 0 km/h
791 09-01-2011 14:11:01 5.2 C 5.23 g/m*3 5.2 C 0 km/h
792 09-01-2011 14:23:01 5.3 C 5.27 g/m*3 5.3 C 0 km/h
793 09-01-2011 14:35:02 5.3 C 5.27 g/m*3 5.3 C 0 km/h
794 09-01-2011 14:47:02 5.2 C 5.3 g/m*3 5.2 C 0 km/h
795 09-01-2011 14:59:02 5.2 C 5.23 g/m*3 5.2 C 0 km/h
796 09-01-2011 15:11:02 5 C 5.37 g/m*3 5 C 0 km/h
797 09-01-2011 15:23:02 4.8 C 5.5 g/m*3 4.8 C 0 km/h
798 09-01-2011 15:35:02 4.6 C 5.49 g/m*3 4.6 C 0 km/h
799 09-01-2011 15:47:02 4.4 C 5.42 g/m*3 4.4 C 0 km/h
800 09-01-2011 15:59:02 4.1 C 5.38 g/m*3 4.1 C 0 km/h
Sensor: Nr:Datum:Temp:Abs-Feuchte:Windchill:Wind:
Aussen-T/F 801 09-01-2011 16:11:02 3.8 C 5.4 g/m*3 3.8 C 0 km/h
802 09-01-2011 16:23:02 3.4 C 5.31 g/m*3 3.4 C 0 km/h
803 09-01-2011 16:35:02 3.2 C 5.24 g/m*3 3.2 C 0 km/h
804 09-01-2011 16:47:02 3 C 5.23 g/m*3 3 C 0 km/h
805 09-01-2011 16:59:02 2.9 C 5.26 g/m*3 2.9 C 0 km/h
806 09-01-2011 17:11:02 3.2 C 5.36 g/m*3 3.2 C 0 km/h
807 09-01-2011 17:23:02 2.9 C 5.26 g/m*3 2.9 C 0 km/h
808 09-01-2011 17:35:02 2.7 C 5.19 g/m*3 2.7 C 0 km/h
809 09-01-2011 17:47:02 2.6 C 5.21 g/m*3 2.6 C 0 km/h
810 09-01-2011 17:59:02 2.5 C 5.17 g/m*3 2.5 C 0 km/h
811 09-01-2011 18:11:02 2.2 C 5.07 g/m*3 2.2 C 0 km/h
812 09-01-2011 18:23:03 1.9 C 5.02 g/m*3 1.9 C 0 km/h
813 09-01-2011 18:35:02 1.7 C 4.95 g/m*3 1.7 C 0 km/h
814 09-01-2011 18:47:02 1.5 C 4.89 g/m*3 1.5 C 0 km/h
815 09-01-2011 18:59:02 1.5 C 4.89 g/m*3 1.5 C 0 km/h
816 09-01-2011 19:11:02 1.6 C 4.97 g/m*3 1.6 C 0 km/h
817 09-01-2011 19:23:02 1.7 C 5.01 g/m*3 1.7 C 0 km/h
818 09-01-2011 19:35:02 2 C 5.11 g/m*3 2 C 0 km/h
819 09-01-2011 19:47:02 1.9 C 5.08 g/m*3 1.9 C 0 km/h
820 09-01-2011 19:59:02 1.8 C 5.04 g/m*3 1.8 C 0 km/h
821 09-01-2011 20:11:02 1.4 C 4.91 g/m*3 1.4 C 0 km/h
822 09-01-2011 20:23:02 1.5 C 4.94 g/m*3 1.5 C 0 km/h
823 09-01-2011 20:35:02 1.5 C 4.94 g/m*3 1.5 C 0 km/h
824 09-01-2011 20:47:02 1 C 4.72 g/m*3 1 C 0 km/h
825 09-01-2011 20:59:02 0.8 C 4.71 g/m*3 0.8 C 0 km/h
Sensor: Nr:Datum:Temp:Abs-Feuchte:Windchill:Wind:
Aussen-T/F 826 09-01-2011 21:11:02 0.5 C 4.61 g/m*3 0.5 C 0 km/h
827 09-01-2011 21:23:02 0.3 C 4.55 g/m*3 0.3 C 0 km/h
828 09-01-2011 21:35:01 0.9 C 4.79 g/m*3 0.9 C 0 km/h
829 09-01-2011 21:47:02 0.8 C 4.71 g/m*3 0.8 C 0 km/h
830 09-01-2011 21:59:02 0.7 C 4.73 g/m*3 0.7 C 0 km/h
831 09-01-2011 22:11:02 0.2 C 4.52 g/m*3 0.2 C 0 km/h
832 09-01-2011 22:23:02 0.3 C 4.6 g/m*3 0.3 C 0 km/h
833 09-01-2011 22:36:02 0 C 4.46 g/m*3 0 C 0 km/h
834 09-01-2011 22:48:02 -0.2 C 4.4 g/m*3 -0.2 C 0 km/h
835 09-01-2011 23:00:02 0.1 C 4.54 g/m*3 0.1 C 0 km/h
836 09-01-2011 23:12:02 0.2 C 4.57 g/m*3 0.2 C 0 km/h
837 09-01-2011 23:24:02 -0.3 C 4.41 g/m*3 -0.3 C 0 km/h
838 09-01-2011 23:36:02 0.1 C 4.54 g/m*3 0.1 C 0 km/h
839 09-01-2011 23:48:02 0 C 4.51 g/m*3 0 C 0 km/h
840 10-01-2011 00:00:02 0.3 C 4.6 g/m*3 0.3 C 0 km/h
841 10-01-2011 00:12:02 0.6 C 4.7 g/m*3 0.6 C 0 km/h
842 10-01-2011 00:24:02 0.3 C 4.6 g/m*3 0.3 C 0 km/h
843 10-01-2011 00:36:02 -0.2 C 4.44 g/m*3 -0.2 C 0 km/h
844 10-01-2011 00:48:02 -0.2 C 4.44 g/m*3 -0.2 C 0 km/h
845 10-01-2011 01:00:02 0.2 C 4.57 g/m*3 0.2 C 0 km/h
846 10-01-2011 01:12:02 0.3 C 4.6 g/m*3 0.3 C 0 km/h
847 10-01-2011 01:24:02 0.4 C 4.63 g/m*3 0.4 C 0 km/h
848 10-01-2011 01:36:02 0.3 C 4.65 g/m*3 0.3 C 0 km/h
849 10-01-2011 01:48:02 0.2 C 4.62 g/m*3 0.2 C 0 km/h
850 10-01-2011 02:00:02 0.2 C 4.62 g/m*3 0.2 C 0 km/h
Sensor: Nr:Datum:Temp:Abs-Feuchte:Windchill:Wind:
Aussen-T/F 851 10-01-2011 02:12:02 0.1 C 4.54 g/m*3 0.1 C 0 km/h
852 10-01-2011 02:24:02 0 C 4.55 g/m*3 0 C 0 km/h
853 10-01-2011 02:36:03 -0.1 C 4.52 g/m*3 -0.1 C 0 km/h
854 10-01-2011 02:48:03 -0.1 C 4.52 g/m*3 -0.1 C 0 km/h
855 10-01-2011 03:00:03 0 C 4.55 g/m*3 0 C 0 km/h
856 10-01-2011 03:12:03 0.2 C 4.62 g/m*3 0.2 C 0 km/h
857 10-01-2011 03:24:03 0.3 C 4.65 g/m*3 0.3 C 0 km/h
858 10-01-2011 03:36:03 0.2 C 4.62 g/m*3 0.2 C 0 km/h
859 10-01-2011 03:48:03 0.3 C 4.65 g/m*3 0.3 C 0 km/h
860 10-01-2011 04:00:03 0.4 C 4.68 g/m*3 0.4 C 0 km/h
861 10-01-2011 04:12:03 0.4 C 4.68 g/m*3 0.4 C 0 km/h
862 10-01-2011 04:24:03 0.4 C 4.68 g/m*3 0.4 C 0 km/h
863 10-01-2011 04:36:03 0.4 C 4.68 g/m*3 0.4 C 0 km/h
864 10-01-2011 04:48:03 0.3 C 4.65 g/m*3 0.3 C 0 km/h
865 10-01-2011 05:00:03 0.3 C 4.65 g/m*3 0.3 C 0 km/h
866 10-01-2011 05:12:03 0.3 C 4.65 g/m*3 0.3 C 0 km/h
867 10-01-2011 05:24:03 0.2 C 4.62 g/m*3 0.2 C 0 km/h
868 10-01-2011 05:36:03 0.3 C 4.65 g/m*3 0.3 C 0 km/h
869 10-01-2011 05:48:03 0.2 C 4.57 g/m*3 0.2 C 0 km/h
870 10-01-2011 06:00:03 0.2 C 4.57 g/m*3 0.2 C 0 km/h
871 10-01-2011 06:12:03 0.2 C 4.57 g/m*3 0.2 C 0 km/h
872 10-01-2011 06:24:03 0.2 C 4.57 g/m*3 0.2 C 0 km/h
873 10-01-2011 06:36:04 0.2 C 4.57 g/m*3 0.2 C 0 km/h
874 10-01-2011 06:48:04 0.2 C 4.57 g/m*3 0.2 C 0 km/h
875 10-01-2011 07:00:04 0.2 C 4.57 g/m*3 0.2 C 0 km/h
Sensor: Nr:Datum:Temp:Abs-Feuchte:Windchill:Wind:
Aussen-T/F 876 10-01-2011 07:12:01 -0.1 C 4.47 g/m*3 -0.1 C 0 km/h
877 10-01-2011 07:24:02 0 C 4.51 g/m*3 0 C 0 km/h
878 10-01-2011 07:36:01 0.1 C 4.54 g/m*3 0.1 C 0 km/h
879 10-01-2011 07:48:02 0.3 C 4.6 g/m*3 0.3 C 0 km/h
880 10-01-2011 08:00:02 0.3 C 4.6 g/m*3 0.3 C 0 km/h
881 10-01-2011 08:12:01 0.2 C 4.52 g/m*3 0.2 C 0 km/h
882 10-01-2011 08:24:02 0.2 C 4.52 g/m*3 0.2 C 0 km/h
883 10-01-2011 08:36:01 0.1 C 4.44 g/m*3 0.1 C 0 km/h
884 10-01-2011 08:48:03 0.1 C 4.44 g/m*3 0.1 C 0 km/h
885 10-01-2011 09:00:03 0.2 C 4.47 g/m*3 0.2 C 0 km/h
886 10-01-2011 09:12:02 0.3 C 4.45 g/m*3 0.3 C 0 km/h
887 10-01-2011 09:24:02 0.4 C 4.48 g/m*3 0.4 C 0 km/h
888 10-01-2011 09:36:02 0.3 C 4.4 g/m*3 0.3 C 0 km/h
889 10-01-2011 09:48:02 0.4 C 4.43 g/m*3 0.4 C 0 km/h
890 10-01-2011 10:00:02 0.5 C 4.41 g/m*3 0.5 C 0 km/h
891 10-01-2011 10:12:02 0.2 C 4.27 g/m*3 0.2 C 0 km/h
892 10-01-2011 10:24:02 0.5 C 4.36 g/m*3 0.5 C 0 km/h
893 10-01-2011 10:36:02 0.7 C 4.37 g/m*3 0.7 C 0 km/h
894 10-01-2011 10:48:02 0.8 C 4.4 g/m*3 0.8 C 0 km/h
895 10-01-2011 11:00:02 1.1 C 4.39 g/m*3 1.1 C 0 km/h
896 10-01-2011 11:12:01 0.5 C 4.16 g/m*3 0.5 C 0 km/h
897 10-01-2011 11:24:01 0.8 C 4.2 g/m*3 0.8 C 0 km/h
898 10-01-2011 11:36:02 0.8 C 4.15 g/m*3 0.8 C 0 km/h
899 10-01-2011 11:48:02 1.2 C 4.21 g/m*3 1.2 C 0 km/h
900 10-01-2011 12:00:02 1.3 C 4.24 g/m*3 1.3 C 0 km/h
Sensor: Nr:Datum:Temp:Abs-Feuchte:Windchill:Wind:
Aussen-T/F 901 10-01-2011 12:12:02 1.7 C 4.3 g/m*3 1.7 C 0 km/h
902 10-01-2011 12:24:01 2.1 C 4.36 g/m*3 2.1 C 0 km/h
903 10-01-2011 12:36:02 2 C 4.33 g/m*3 2 C 0 km/h
904 10-01-2011 12:48:02 1.8 C 4.28 g/m*3 1.8 C 0 km/h
905 10-01-2011 13:00:02 2.1 C 4.36 g/m*3 2.1 C 0 km/h
906 10-01-2011 13:12:02 2 C 4.33 g/m*3 2 C 0 km/h
907 10-01-2011 13:24:01 2 C 4.39 g/m*3 2 C 0 km/h
908 10-01-2011 13:36:02 2.2 C 4.45 g/m*3 2.2 C 0 km/h
909 10-01-2011 13:48:02 2.2 C 4.39 g/m*3 2.2 C 0 km/h
910 10-01-2011 14:00:02 2.4 C 4.45 g/m*3 2.4 C 0 km/h
911 10-01-2011 14:12:02 2.5 C 4.48 g/m*3 2.5 C 0 km/h
912 10-01-2011 14:24:02 2.3 C 4.48 g/m*3 2.3 C 0 km/h
913 10-01-2011 14:36:02 2.1 C 4.36 g/m*3 2.1 C 0 km/h
914 10-01-2011 14:48:02 2 C 4.33 g/m*3 2 C 0 km/h
915 10-01-2011 15:00:02 2 C 4.33 g/m*3 2 C 0 km/h
916 10-01-2011 15:12:02 2.1 C 4.36 g/m*3 2.1 C 0 km/h
917 10-01-2011 15:24:02 2.1 C 4.36 g/m*3 2.1 C 0 km/h
918 10-01-2011 15:36:01 2.2 C 4.39 g/m*3 2.2 C 0 km/h
919 10-01-2011 15:48:02 2.1 C 4.36 g/m*3 2.1 C 0 km/h
920 10-01-2011 16:00:02 2.1 C 4.36 g/m*3 2.1 C 0 km/h
921 10-01-2011 16:12:01 2 C 4.33 g/m*3 2 C 0 km/h
922 10-01-2011 16:24:02 1.9 C 4.36 g/m*3 1.9 C 0 km/h
923 10-01-2011 16:36:02 1.8 C 4.33 g/m*3 1.8 C 0 km/h
924 10-01-2011 16:48:02 1.5 C 4.24 g/m*3 1.5 C 0 km/h
925 10-01-2011 17:00:02 1.2 C 4.21 g/m*3 1.2 C 0 km/h
Sensor: Nr:Datum:Temp:Abs-Feuchte:Windchill:Wind:
Aussen-T/F 926 10-01-2011 17:12:02 0.8 C 4.2 g/m*3 0.8 C 0 km/h
927 10-01-2011 17:24:02 0.7 C 4.22 g/m*3 0.7 C 0 km/h
928 10-01-2011 17:36:02 0.7 C 4.27 g/m*3 0.7 C 0 km/h
929 10-01-2011 17:48:02 0.8 C 4.3 g/m*3 0.8 C 0 km/h
930 10-01-2011 18:00:02 0.7 C 4.27 g/m*3 0.7 C 0 km/h
931 10-01-2011 18:12:01 0.4 C 4.18 g/m*3 0.4 C 0 km/h
932 10-01-2011 18:24:02 0.1 C 4.1 g/m*3 0.1 C 0 km/h
933 10-01-2011 18:36:02 -0.1 C 4.09 g/m*3 -0.1 C 0 km/h
934 10-01-2011 18:48:02 0 C 4.17 g/m*3 0 C 0 km/h
935 10-01-2011 19:00:02 0.1 C 4.24 g/m*3 0.1 C 0 km/h
936 10-01-2011 19:12:02 0.2 C 4.27 g/m*3 0.2 C 0 km/h
937 10-01-2011 19:24:02 0.2 C 4.32 g/m*3 0.2 C 0 km/h
938 10-01-2011 19:36:02 0.4 C 4.38 g/m*3 0.4 C 0 km/h
939 10-01-2011 19:48:02 0.4 C 4.38 g/m*3 0.4 C 0 km/h
940 10-01-2011 20:00:02 0.4 C 4.38 g/m*3 0.4 C 0 km/h
941 10-01-2011 20:12:02 0.6 C 4.39 g/m*3 0.6 C 0 km/h
942 10-01-2011 20:24:01 0.8 C 4.4 g/m*3 0.8 C 0 km/h
943 10-01-2011 20:36:02 0.8 C 4.3 g/m*3 0.8 C 0 km/h
944 10-01-2011 20:48:02 0.8 C 4.25 g/m*3 0.8 C 0 km/h
945 10-01-2011 21:00:02 0.7 C 4.12 g/m*3 0.7 C 0 km/h
946 10-01-2011 21:12:02 0.6 C 4.04 g/m*3 0.6 C 0 km/h
947 10-01-2011 21:24:01 0.5 C 4.01 g/m*3 0.5 C 0 km/h
948 10-01-2011 21:36:02 0.5 C 4.01 g/m*3 0.5 C 0 km/h
949 10-01-2011 21:48:02 0.5 C 4.01 g/m*3 0.5 C 0 km/h
950 10-01-2011 22:00:02 0.5 C 4.06 g/m*3 0.5 C 0 km/h
Sensor: Nr:Datum:Temp:Abs-Feuchte:Windchill:Wind:
Aussen-T/F 951 10-01-2011 22:12:02 0.5 C 4.06 g/m*3 0.5 C 0 km/h
952 10-01-2011 22:25:04 0.5 C 4.06 g/m*3 0.5 C 0 km/h
953 10-01-2011 22:37:04 0.5 C 4.06 g/m*3 0.5 C 0 km/h
954 10-01-2011 22:49:04 0.5 C 4.01 g/m*3 0.5 C 0 km/h
955 10-01-2011 23:01:04 0.5 C 4.01 g/m*3 0.5 C 0 km/h
956 10-01-2011 23:13:04 0.5 C 4.01 g/m*3 0.5 C 0 km/h
957 10-01-2011 23:25:04 0.5 C 4.01 g/m*3 0.5 C 0 km/h
958 10-01-2011 23:37:04 0.6 C 4.09 g/m*3 0.6 C 0 km/h
959 10-01-2011 23:49:04 0.6 C 4.09 g/m*3 0.6 C 0 km/h
960 11-01-2011 00:01:04 0.6 C 4.04 g/m*3 0.6 C 0 km/h
961 11-01-2011 00:13:05 0.5 C 3.96 g/m*3 0.5 C 0 km/h
962 11-01-2011 00:25:05 0.3 C 3.96 g/m*3 0.3 C 0 km/h
963 11-01-2011 00:37:05 -0.2 C 3.82 g/m*3 -0.2 C 0 km/h
964 11-01-2011 00:49:05 -0.4 C 3.86 g/m*3 -0.4 C 0 km/h
965 11-01-2011 01:01:05 -0.2 C 4.01 g/m*3 -0.2 C 0 km/h
966 11-01-2011 01:13:05 -0.1 C 4.04 g/m*3 -0.1 C 0 km/h
967 11-01-2011 01:25:05 -0.4 C 4.01 g/m*3 -0.4 C 0 km/h
968 11-01-2011 01:37:05 -0.1 C 4.14 g/m*3 -0.1 C 0 km/h
969 11-01-2011 01:49:05 0.2 C 4.22 g/m*3 0.2 C 0 km/h
970 11-01-2011 02:01:05 0.6 C 4.29 g/m*3 0.6 C 0 km/h
971 11-01-2011 02:13:05 0.7 C 4.22 g/m*3 0.7 C 0 km/h
972 11-01-2011 02:25:05 0.8 C 4.2 g/m*3 0.8 C 0 km/h
973 11-01-2011 02:37:05 1 C 4.1 g/m*3 1 C 0 km/h
974 11-01-2011 02:49:05 0.8 C 4.04 g/m*3 0.8 C 0 km/h
975 11-01-2011 03:01:05 0.8 C 4.04 g/m*3 0.8 C 0 km/h
Sensor: Nr:Datum:Temp:Abs-Feuchte:Windchill:Wind:
Aussen-T/F 976 11-01-2011 03:13:05 0.8 C 4.04 g/m*3 0.8 C 0 km/h
977 11-01-2011 03:25:05 0.6 C 4.04 g/m*3 0.6 C 0 km/h
978 11-01-2011 03:37:05 0.8 C 4.1 g/m*3 0.8 C 0 km/h
979 11-01-2011 03:49:05 0.6 C 4.04 g/m*3 0.6 C 0 km/h
980 11-01-2011 04:01:05 0.3 C 3.96 g/m*3 0.3 C 0 km/h
981 11-01-2011 04:13:06 0.2 C 3.98 g/m*3 0.2 C 0 km/h
982 11-01-2011 04:25:06 0.1 C 4 g/m*3 0.1 C 0 km/h
983 11-01-2011 04:37:06 0.6 C 4.14 g/m*3 0.6 C 0 km/h
984 11-01-2011 04:49:06 0.9 C 4.18 g/m*3 0.9 C 0 km/h
985 11-01-2011 05:01:06 1.1 C 4.13 g/m*3 1.1 C 0 km/h
986 11-01-2011 05:13:06 1.1 C 4.13 g/m*3 1.1 C 0 km/h
987 11-01-2011 05:25:06 1.1 C 4.13 g/m*3 1.1 C 0 km/h
988 11-01-2011 05:37:06 1.1 C 4.13 g/m*3 1.1 C 0 km/h
989 11-01-2011 05:49:06 1.1 C 4.13 g/m*3 1.1 C 0 km/h
990 11-01-2011 06:01:06 1.2 C 4.16 g/m*3 1.2 C 0 km/h
991 11-01-2011 06:13:06 1.2 C 4.16 g/m*3 1.2 C 0 km/h
992 11-01-2011 06:25:06 1.3 C 4.19 g/m*3 1.3 C 0 km/h
993 11-01-2011 06:37:06 1.3 C 4.24 g/m*3 1.3 C 0 km/h
994 11-01-2011 06:49:06 1.3 C 4.24 g/m*3 1.3 C 0 km/h
995 11-01-2011 07:01:06 1.4 C 4.27 g/m*3 1.4 C 0 km/h
996 11-01-2011 07:13:06 1.4 C 4.32 g/m*3 1.4 C 0 km/h
997 11-01-2011 07:25:03 1.4 C 4.32 g/m*3 1.4 C 0 km/h
998 11-01-2011 07:37:03 1.4 C 4.32 g/m*3 1.4 C 0 km/h
999 11-01-2011 07:49:02 1.5 C 4.4 g/m*3 1.5 C 0 km/h
1000 11-01-2011 08:01:02 1.5 C 4.4 g/m*3 1.5 C 0 km/h
Sensor: Nr:Datum:Temp:Abs-Feuchte:Windchill:Wind:
Aussen-T/F 1001 11-01-2011 08:13:02 1.5 C 4.4 g/m*3 1.5 C 0 km/h
1002 11-01-2011 08:25:03 1.5 C 4.46 g/m*3 1.5 C 0 km/h
1003 11-01-2011 08:37:02 1.5 C 4.46 g/m*3 1.5 C 0 km/h
1004 11-01-2011 08:49:03 1.5 C 4.51 g/m*3 1.5 C 0 km/h
1005 11-01-2011 09:01:02 1.6 C 4.54 g/m*3 1.6 C 0 km/h
1006 11-01-2011 09:13:02 1.8 C 4.66 g/m*3 1.8 C 0 km/h
1007 11-01-2011 09:25:02 2 C 4.67 g/m*3 2 C 0 km/h
1008 11-01-2011 09:37:02 2.3 C 4.71 g/m*3 2.3 C 0 km/h
1009 11-01-2011 09:49:02 2.6 C 4.75 g/m*3 2.6 C 0 km/h
1010 11-01-2011 10:01:02 2.9 C 4.72 g/m*3 2.9 C 0 km/h
1011 11-01-2011 10:13:02 3.2 C 4.7 g/m*3 3.2 C 0 km/h
1012 11-01-2011 10:25:02 3.2 C 4.58 g/m*3 3.2 C 0 km/h
1013 11-01-2011 10:37:02 3.2 C 4.58 g/m*3 3.2 C 0 km/h
1014 11-01-2011 10:49:02 2.7 C 4.54 g/m*3 2.7 C 0 km/h
1015 11-01-2011 11:01:02 2.5 C 4.6 g/m*3 2.5 C 0 km/h
1016 11-01-2011 11:13:02 2.6 C 4.75 g/m*3 2.6 C 0 km/h
1017 11-01-2011 11:25:02 2.8 C 4.87 g/m*3 2.8 C 0 km/h
1018 11-01-2011 11:37:02 3.7 C 5.17 g/m*3 3.7 C 0 km/h
1019 11-01-2011 11:49:02 4.8 C 5.1 g/m*3 4.8 C 0 km/h
1020 11-01-2011 12:01:02 5.4 C 4.74 g/m*3 5.4 C 0 km/h
1021 11-01-2011 12:13:02 5.7 C 4.63 g/m*3 5.7 C 0 km/h
1022 11-01-2011 12:25:02 5.7 C 4.55 g/m*3 5.7 C 0 km/h
1023 11-01-2011 12:37:01 5.6 C 4.6 g/m*3 5.6 C 0 km/h
1024 11-01-2011 12:49:02 5.1 C 4.58 g/m*3 5.1 C 0 km/h
1025 11-01-2011 13:01:01 5.2 C 4.75 g/m*3 5.2 C 0 km/h
Sensor: Nr:Datum:Temp:Abs-Feuchte:Windchill:Wind:
Aussen-T/F 1026 11-01-2011 13:13:01 5.1 C 4.72 g/m*3 5.1 C 0 km/h
1027 11-01-2011 13:25:01 5.3 C 4.71 g/m*3 5.3 C 0 km/h
1028 11-01-2011 13:37:02 5.5 C 4.85 g/m*3 5.5 C 0 km/h
1029 11-01-2011 13:49:02 5.4 C 4.74 g/m*3 5.4 C 0 km/h
1030 11-01-2011 14:01:02 5.3 C 4.85 g/m*3 5.3 C 0 km/h
1031 11-01-2011 14:13:02 5.3 C 4.92 g/m*3 5.3 C 0 km/h
1032 11-01-2011 14:25:02 5.3 C 4.85 g/m*3 5.3 C 0 km/h
1033 11-01-2011 14:37:02 5.3 C 4.92 g/m*3 5.3 C 0 km/h
1034 11-01-2011 14:49:02 5.3 C 4.92 g/m*3 5.3 C 0 km/h
1035 11-01-2011 15:01:02 5.3 C 5.06 g/m*3 5.3 C 0 km/h
1036 11-01-2011 15:13:02 5.5 C 5.06 g/m*3 5.5 C 0 km/h
1037 11-01-2011 15:25:02 5.6 C 5.02 g/m*3 5.6 C 0 km/h
1038 11-01-2011 15:37:02 5.3 C 5.06 g/m*3 5.3 C 0 km/h
1039 11-01-2011 15:49:01 5.1 C 5.13 g/m*3 5.1 C 0 km/h
1040 11-01-2011 16:01:01 4.8 C 5.3 g/m*3 4.8 C 0 km/h
1041 11-01-2011 16:13:01 4.6 C 5.43 g/m*3 4.6 C 0 km/h
1042 11-01-2011 16:25:02 4.5 C 5.46 g/m*3 4.5 C 0 km/h
1043 11-01-2011 16:37:01 4.5 C 5.46 g/m*3 4.5 C 0 km/h
1044 11-01-2011 16:49:03 4.5 C 5.46 g/m*3 4.5 C 0 km/h
1045 11-01-2011 17:01:02 4.7 C 5.53 g/m*3 4.7 C 0 km/h
1046 11-01-2011 17:13:02 4.7 C 5.46 g/m*3 4.7 C 0 km/h
1047 11-01-2011 17:25:02 5.2 C 5.44 g/m*3 5.2 C 0 km/h
1048 11-01-2011 17:37:02 5.4 C 5.44 g/m*3 5.4 C 0 km/h
1049 11-01-2011 17:49:02 5.5 C 5.41 g/m*3 5.5 C 0 km/h
1050 11-01-2011 18:01:02 5.3 C 5.41 g/m*3 5.3 C 0 km/h
Sensor: Nr:Datum:Temp:Abs-Feuchte:Windchill:Wind:
Aussen-T/F 1051 11-01-2011 18:13:02 5.3 C 5.48 g/m*3 5.3 C 0 km/h
1052 11-01-2011 18:25:02 5.4 C 5.51 g/m*3 5.4 C 0 km/h
1053 11-01-2011 18:37:02 5.6 C 5.59 g/m*3 5.6 C 0 km/h
1054 11-01-2011 18:49:02 5.8 C 5.59 g/m*3 5.8 C 0 km/h
1055 11-01-2011 19:01:01 6 C 5.52 g/m*3 6 C 0 km/h
1056 11-01-2011 19:13:01 6 C 5.52 g/m*3 6 C 0 km/h
1057 11-01-2011 19:25:01 6 C 5.59 g/m*3 6 C 0 km/h
1058 11-01-2011 19:37:02 6 C 5.59 g/m*3 6 C 0 km/h
1059 11-01-2011 19:49:02 5.9 C 5.62 g/m*3 5.9 C 0 km/h
1060 11-01-2011 20:01:02 6 C 5.59 g/m*3 6 C 0 km/h
1061 11-01-2011 20:13:02 6.1 C 5.63 g/m*3 6.1 C 0 km/h
1062 11-01-2011 20:25:02 6.1 C 5.63 g/m*3 6.1 C 0 km/h
1063 11-01-2011 20:37:02 6.2 C 5.59 g/m*3 6.2 C 0 km/h
1064 11-01-2011 20:49:02 6.3 C 5.55 g/m*3 6.3 C 0 km/h
1065 11-01-2011 21:01:02 6.3 C 5.63 g/m*3 6.3 C 0 km/h
1066 11-01-2011 21:13:02 6.3 C 5.63 g/m*3 6.3 C 0 km/h
1067 11-01-2011 21:25:02 6.1 C 5.63 g/m*3 6.1 C 0 km/h
1068 11-01-2011 21:37:02 6.1 C 5.7 g/m*3 6.1 C 0 km/h
1069 11-01-2011 21:50:03 6 C 5.73 g/m*3 6 C 0 km/h
1070 11-01-2011 22:02:03 5.8 C 5.8 g/m*3 5.8 C 0 km/h
1071 11-01-2011 22:14:03 5.9 C 5.91 g/m*3 5.9 C 0 km/h
1072 11-01-2011 22:26:03 5.9 C 5.91 g/m*3 5.9 C 0 km/h
1073 11-01-2011 22:38:03 6.3 C 6 g/m*3 6.3 C 0 km/h
1074 11-01-2011 22:50:03 5.9 C 5.91 g/m*3 5.9 C 0 km/h
1075 11-01-2011 23:02:03 5.9 C 6.06 g/m*3 5.9 C 0 km/h
Sensor: Nr:Datum:Temp:Abs-Feuchte:Windchill:Wind:
Aussen-T/F 1076 11-01-2011 23:14:03 5.9 C 6.06 g/m*3 5.9 C 0 km/h
1077 11-01-2011 23:26:03 6 C 6.02 g/m*3 6 C 0 km/h
1078 11-01-2011 23:38:03 6.1 C 5.99 g/m*3 6.1 C 0 km/h
1079 11-01-2011 23:50:03 6.1 C 5.92 g/m*3 6.1 C 0 km/h
1080 12-01-2011 00:02:03 6.3 C 5.77 g/m*3 6.3 C 0 km/h
1081 12-01-2011 00:14:03 6.5 C 5.62 g/m*3 6.5 C 0 km/h
1082 12-01-2011 00:26:03 6.2 C 5.37 g/m*3 6.2 C 0 km/h
1083 12-01-2011 00:38:03 5.9 C 5.26 g/m*3 5.9 C 0 km/h
1084 12-01-2011 00:50:04 5.8 C 5.3 g/m*3 5.8 C 0 km/h
1085 12-01-2011 01:02:04 5.9 C 5.34 g/m*3 5.9 C 0 km/h
1086 12-01-2011 01:14:04 5.8 C 5.3 g/m*3 5.8 C 0 km/h
1087 12-01-2011 01:26:04 6 C 5.23 g/m*3 6 C 0 km/h
1088 12-01-2011 01:38:04 6 C 5.15 g/m*3 6 C 0 km/h
1089 12-01-2011 01:50:04 6.1 C 5.11 g/m*3 6.1 C 0 km/h
1090 12-01-2011 02:02:04 6 C 5.08 g/m*3 6 C 0 km/h
1091 12-01-2011 02:14:04 6 C 5.08 g/m*3 6 C 0 km/h
1092 12-01-2011 02:26:04 5.9 C 5.12 g/m*3 5.9 C 0 km/h
1093 12-01-2011 02:38:04 5.9 C 5.05 g/m*3 5.9 C 0 km/h
1094 12-01-2011 02:50:04 5.7 C 4.98 g/m*3 5.7 C 0 km/h
1095 12-01-2011 03:02:04 5.5 C 4.99 g/m*3 5.5 C 0 km/h
1096 12-01-2011 03:14:04 5 C 5.1 g/m*3 5 C 0 km/h
1097 12-01-2011 03:26:04 4.9 C 5.27 g/m*3 4.9 C 0 km/h
1098 12-01-2011 03:38:04 4.7 C 5.26 g/m*3 4.7 C 0 km/h
1099 12-01-2011 03:50:04 4.5 C 5.26 g/m*3 4.5 C 0 km/h
1100 12-01-2011 04:02:04 4.3 C 5.32 g/m*3 4.3 C 0 km/h
Sensor: Nr:Datum:Temp:Abs-Feuchte:Windchill:Wind:
Aussen-T/F 1101 12-01-2011 04:14:04 4.3 C 5.32 g/m*3 4.3 C 0 km/h
1102 12-01-2011 04:26:04 4.1 C 5.31 g/m*3 4.1 C 0 km/h
1103 12-01-2011 04:38:04 3.9 C 5.37 g/m*3 3.9 C 0 km/h
1104 12-01-2011 04:50:05 3.8 C 5.4 g/m*3 3.8 C 0 km/h
1105 12-01-2011 05:02:05 3.8 C 5.33 g/m*3 3.8 C 0 km/h
1106 12-01-2011 05:14:05 3.8 C 5.27 g/m*3 3.8 C 0 km/h
1107 12-01-2011 05:26:05 3.7 C 5.23 g/m*3 3.7 C 0 km/h
1108 12-01-2011 05:38:05 3.7 C 5.17 g/m*3 3.7 C 0 km/h
1109 12-01-2011 05:50:05 3.8 C 5.21 g/m*3 3.8 C 0 km/h
1110 12-01-2011 06:02:05 3.6 C 5.14 g/m*3 3.6 C 0 km/h
1111 12-01-2011 06:14:05 3.5 C 5.16 g/m*3 3.5 C 0 km/h
1112 12-01-2011 06:26:05 3.6 C 5.14 g/m*3 3.6 C 0 km/h
1113 12-01-2011 06:38:05 3.6 C 5.14 g/m*3 3.6 C 0 km/h
1114 12-01-2011 06:50:05 3.5 C 5.04 g/m*3 3.5 C 0 km/h
1115 12-01-2011 07:02:02 3.5 C 5.04 g/m*3 3.5 C 0 km/h
1116 12-01-2011 07:14:02 3.6 C 5.08 g/m*3 3.6 C 0 km/h
1117 12-01-2011 07:26:02 3.3 C 4.97 g/m*3 3.3 C 0 km/h
1118 12-01-2011 07:38:02 3.1 C 4.97 g/m*3 3.1 C 0 km/h
1119 12-01-2011 07:50:01 3.1 C 5.03 g/m*3 3.1 C 0 km/h
1120 12-01-2011 08:02:01 3 C 4.99 g/m*3 3 C 0 km/h
1121 12-01-2011 08:14:01 2.8 C 4.93 g/m*3 2.8 C 0 km/h
1122 12-01-2011 08:26:01 3.1 C 5.03 g/m*3 3.1 C 0 km/h
1123 12-01-2011 08:38:01 3 C 4.99 g/m*3 3 C 0 km/h
1124 12-01-2011 08:50:01 3 C 4.99 g/m*3 3 C 0 km/h
1125 12-01-2011 09:02:01 3.5 C 5.16 g/m*3 3.5 C 0 km/h
Sensor: Nr:Datum:Temp:Abs-Feuchte:Windchill:Wind:
Aussen-T/F 1126 12-01-2011 09:14:01 3.5 C 5.04 g/m*3 3.5 C 0 km/h
1127 12-01-2011 09:26:02 3.7 C 5.11 g/m*3 3.7 C 0 km/h
1128 12-01-2011 09:38:01 4 C 4.96 g/m*3 4 C 0 km/h
1129 12-01-2011 09:50:02 4.5 C 4.93 g/m*3 4.5 C 0 km/h
1130 12-01-2011 10:02:02 4.6 C 4.83 g/m*3 4.6 C 0 km/h
1131 12-01-2011 10:14:02 4.7 C 4.93 g/m*3 4.7 C 0 km/h
1132 12-01-2011 10:26:01 4.9 C 4.93 g/m*3 4.9 C 0 km/h
1133 12-01-2011 10:38:02 4.9 C 4.86 g/m*3 4.9 C 0 km/h
1134 12-01-2011 10:50:02 5 C 4.82 g/m*3 5 C 0 km/h
1135 12-01-2011 11:02:02 5.1 C 4.86 g/m*3 5.1 C 0 km/h
1136 12-01-2011 11:14:02 5.2 C 4.82 g/m*3 5.2 C 0 km/h
1137 12-01-2011 11:26:01 5.4 C 4.81 g/m*3 5.4 C 0 km/h
1138 12-01-2011 11:38:02 5.3 C 4.85 g/m*3 5.3 C 0 km/h
1139 12-01-2011 11:50:01 5.3 C 4.92 g/m*3 5.3 C 0 km/h
1140 12-01-2011 12:02:02 5.2 C 4.96 g/m*3 5.2 C 0 km/h
1141 12-01-2011 12:14:02 5 C 5.03 g/m*3 5 C 0 km/h
1142 12-01-2011 12:26:02 4.8 C 5.1 g/m*3 4.8 C 0 km/h
1143 12-01-2011 12:38:02 4.7 C 5.13 g/m*3 4.7 C 0 km/h
1144 12-01-2011 12:50:02 4.7 C 5.2 g/m*3 4.7 C 0 km/h
1145 12-01-2011 13:02:02 4.7 C 5.2 g/m*3 4.7 C 0 km/h
1146 12-01-2011 13:14:03 4.9 C 5.33 g/m*3 4.9 C 0 km/h
1147 12-01-2011 13:26:01 5 C 5.37 g/m*3 5 C 0 km/h
1148 12-01-2011 13:38:46 5 C 5.44 g/m*3 5 C 0 km/h
1149 12-01-2011 13:50:02 4.9 C 5.54 g/m*3 4.9 C 0 km/h
1150 12-01-2011 14:02:02 5 C 5.5 g/m*3 5 C 0 km/h
Sensor: Nr:Datum:Temp:Abs-Feuchte:Windchill:Wind:
Aussen-T/F 1151 12-01-2011 14:14:02 5.1 C 5.47 g/m*3 5.1 C 0 km/h
1152 12-01-2011 14:26:02 5.1 C 5.54 g/m*3 5.1 C 0 km/h
1153 12-01-2011 14:38:02 5.1 C 5.54 g/m*3 5.1 C 0 km/h
1154 12-01-2011 14:50:02 5.3 C 5.54 g/m*3 5.3 C 0 km/h
1155 12-01-2011 15:02:01 5.6 C 5.51 g/m*3 5.6 C 0 km/h
1156 12-01-2011 15:14:01 5.4 C 5.44 g/m*3 5.4 C 0 km/h
1157 12-01-2011 15:26:02 5.2 C 5.44 g/m*3 5.2 C 0 km/h
1158 12-01-2011 15:38:02 5.3 C 5.54 g/m*3 5.3 C 0 km/h
1159 12-01-2011 15:50:02 5.6 C 5.59 g/m*3 5.6 C 0 km/h
1160 12-01-2011 16:02:02 6 C 5.44 g/m*3 6 C 0 km/h
1161 12-01-2011 16:14:02 5.9 C 5.48 g/m*3 5.9 C 0 km/h
1162 12-01-2011 16:26:02 6 C 5.44 g/m*3 6 C 0 km/h
1163 12-01-2011 16:38:02 6.1 C 5.48 g/m*3 6.1 C 0 km/h
1164 12-01-2011 16:50:02 6.2 C 5.52 g/m*3 6.2 C 0 km/h
1165 12-01-2011 17:02:02 6.2 C 5.52 g/m*3 6.2 C 0 km/h
1166 12-01-2011 17:14:02 6.3 C 5.55 g/m*3 6.3 C 0 km/h
1167 12-01-2011 17:26:02 6.4 C 5.59 g/m*3 6.4 C 0 km/h
1168 12-01-2011 17:38:02 6 C 5.59 g/m*3 6 C 0 km/h
1169 12-01-2011 17:50:01 6.1 C 5.77 g/m*3 6.1 C 0 km/h
1170 12-01-2011 18:02:02 6.3 C 5.77 g/m*3 6.3 C 0 km/h
1171 12-01-2011 18:14:02 6 C 5.81 g/m*3 6 C 0 km/h
1172 12-01-2011 18:26:01 6 C 5.88 g/m*3 6 C 0 km/h
1173 12-01-2011 18:38:01 6.2 C 6.03 g/m*3 6.2 C 0 km/h
1174 12-01-2011 18:50:01 6.1 C 6.06 g/m*3 6.1 C 0 km/h
1175 12-01-2011 19:02:01 6.1 C 6.06 g/m*3 6.1 C 0 km/h
Sensor: Nr:Datum:Temp:Abs-Feuchte:Windchill:Wind:
Aussen-T/F 1176 12-01-2011 19:14:01 6 C 6.1 g/m*3 6 C 0 km/h
1177 12-01-2011 19:26:02 6.3 C 6.22 g/m*3 6.3 C 0 km/h
1178 12-01-2011 19:38:01 6.5 C 6.22 g/m*3 6.5 C 0 km/h
1179 12-01-2011 19:50:02 6.6 C 6.27 g/m*3 6.6 C 0 km/h
1180 12-01-2011 20:02:02 6.9 C 6.31 g/m*3 6.9 C 0 km/h
1181 12-01-2011 20:14:02 6.8 C 6.27 g/m*3 6.8 C 0 km/h
1182 12-01-2011 20:26:02 7 C 6.28 g/m*3 7 C 0 km/h
1183 12-01-2011 20:38:02 7.1 C 6.24 g/m*3 7.1 C 0 km/h
1184 12-01-2011 20:50:02 7.1 C 6.32 g/m*3 7.1 C 0 km/h
1185 12-01-2011 21:02:01 7.1 C 6.4 g/m*3 7.1 C 0 km/h
1186 12-01-2011 21:14:01 7.2 C 6.44 g/m*3 7.2 C 0 km/h
1187 12-01-2011 21:26:02 7.5 C 6.64 g/m*3 7.5 C 0 km/h
1188 12-01-2011 21:38:02 7.5 C 6.56 g/m*3 7.5 C 0 km/h
1189 12-01-2011 21:50:02 7.4 C 6.52 g/m*3 7.4 C 0 km/h
1190 12-01-2011 22:02:02 7.7 C 6.73 g/m*3 7.7 C 0 km/h
1191 12-01-2011 22:14:02 7.7 C 6.65 g/m*3 7.7 C 0 km/h
1192 12-01-2011 22:26:02 7.9 C 6.74 g/m*3 7.9 C 0 km/h
1193 12-01-2011 22:38:02 8.2 C 6.7 g/m*3 8.2 C 0 km/h
1194 12-01-2011 22:50:02 8.3 C 6.74 g/m*3 8.3 C 0 km/h
1195 12-01-2011 23:02:02 8.5 C 6.74 g/m*3 8.5 C 0 km/h
1196 12-01-2011 23:14:02 8.7 C 6.83 g/m*3 8.7 C 0 km/h
1197 12-01-2011 23:26:01 8.8 C 6.88 g/m*3 8.8 C 0 km/h
1198 12-01-2011 23:38:02 8.9 C 6.83 g/m*3 8.9 C 0 km/h
1199 12-01-2011 23:50:02 8.9 C 6.83 g/m*3 8.9 C 0 km/h
1200 13-01-2011 00:02:02 9 C 6.88 g/m*3 9 C 0 km/h
Sensor: Nr:Datum:Temp:Abs-Feuchte:Windchill:Wind:
Aussen-T/F 1201 13-01-2011 00:14:02 9.3 C 6.92 g/m*3 9.3 C 0 km/h
1202 13-01-2011 00:26:02 9.3 C 7.01 g/m*3 9.3 C 0 km/h
1203 13-01-2011 00:38:02 9.4 C 7.05 g/m*3 9.4 C 0 km/h
1204 13-01-2011 00:50:01 9.5 C 7.1 g/m*3 9.5 C 0 km/h
1205 13-01-2011 01:02:02 9.7 C 7.19 g/m*3 9.7 C 0 km/h
1206 13-01-2011 01:14:02 9.9 C 7.28 g/m*3 9.9 C 0 km/h
1207 13-01-2011 01:26:02 10 C 7.24 g/m*3 10 C 0 km/h
1208 13-01-2011 01:38:02 10.1 C 7.28 g/m*3 10.1 C 0 km/h
1209 13-01-2011 01:50:02 10.2 C 7.33 g/m*3 10.2 C 0 km/h
1210 13-01-2011 02:02:02 10.5 C 7.37 g/m*3 10.5 C 0 km/h
1211 13-01-2011 02:14:02 10.7 C 7.56 g/m*3 10.7 C 0 km/h
1212 13-01-2011 02:26:02 10.7 C 7.56 g/m*3 10.7 C 0 km/h
1213 13-01-2011 02:38:01 10.7 C 7.66 g/m*3 10.7 C 0 km/h
1214 13-01-2011 02:50:02 10.4 C 7.61 g/m*3 10.4 C 0 km/h
1215 13-01-2011 03:02:02 10.4 C 7.71 g/m*3 10.4 C 0 km/h
1216 13-01-2011 03:14:01 10.3 C 7.85 g/m*3 10.3 C 0 km/h
1217 13-01-2011 03:26:01 10.3 C 7.85 g/m*3 10.3 C 0 km/h
1218 13-01-2011 03:38:02 10.3 C 7.85 g/m*3 10.3 C 0 km/h
1219 13-01-2011 03:50:02 10.3 C 7.95 g/m*3 10.3 C 0 km/h
1220 13-01-2011 04:02:01 10.5 C 8.05 g/m*3 10.5 C 0 km/h
1221 13-01-2011 04:14:01 10.6 C 8.1 g/m*3 10.6 C 0 km/h
1222 13-01-2011 04:26:02 10.9 C 8.16 g/m*3 10.9 C 0 km/h
1223 13-01-2011 04:38:01 10.7 C 7.96 g/m*3 10.7 C 0 km/h
1224 13-01-2011 04:50:02 10.8 C 8.01 g/m*3 10.8 C 0 km/h
1225 13-01-2011 05:02:01 11 C 8.01 g/m*3 11 C 0 km/h
Sensor: Nr:Datum:Temp:Abs-Feuchte:Windchill:Wind:
Aussen-T/F 1226 13-01-2011 05:14:01 11.1 C 8.16 g/m*3 11.1 C 0 km/h
1227 13-01-2011 05:26:01 10.7 C 8.05 g/m*3 10.7 C 0 km/h
1228 13-01-2011 05:38:02 10.8 C 8.2 g/m*3 10.8 C 0 km/h
1229 13-01-2011 05:50:01 10.6 C 8.2 g/m*3 10.6 C 0 km/h
1230 13-01-2011 06:02:02 10.7 C 8.25 g/m*3 10.7 C 0 km/h
1231 13-01-2011 06:14:02 10.5 C 8.24 g/m*3 10.5 C 0 km/h
1232 13-01-2011 06:26:01 10.6 C 8.3 g/m*3 10.6 C 0 km/h
1233 13-01-2011 06:38:02 10.6 C 8.39 g/m*3 10.6 C 0 km/h
1234 13-01-2011 06:50:01 10.5 C 8.34 g/m*3 10.5 C 0 km/h
1235 13-01-2011 07:02:01 10.6 C 8.39 g/m*3 10.6 C 0 km/h
1236 13-01-2011 07:14:02 10.5 C 8.44 g/m*3 10.5 C 0 km/h
1237 13-01-2011 07:26:01 10.7 C 8.55 g/m*3 10.7 C 0 km/h
1238 13-01-2011 07:38:01 10.7 C 8.45 g/m*3 10.7 C 0 km/h
1239 13-01-2011 07:50:01 10.8 C 8.5 g/m*3 10.8 C 0 km/h
1240 13-01-2011 08:02:01 10.9 C 8.55 g/m*3 10.9 C 0 km/h
1241 13-01-2011 08:14:01 10.8 C 8.5 g/m*3 10.8 C 0 km/h
1242 13-01-2011 08:26:02 10.8 C 8.4 g/m*3 10.8 C 0 km/h
1243 13-01-2011 08:38:01 10.8 C 8.4 g/m*3 10.8 C 0 km/h
1244 13-01-2011 08:50:02 10.9 C 8.45 g/m*3 10.9 C 0 km/h
1245 13-01-2011 09:02:01 10.9 C 8.45 g/m*3 10.9 C 0 km/h
1246 13-01-2011 09:14:01 11.2 C 8.51 g/m*3 11.2 C 0 km/h
1247 13-01-2011 09:26:02 11.4 C 8.52 g/m*3 11.4 C 0 km/h
1248 13-01-2011 09:38:01 11.4 C 8.42 g/m*3 11.4 C 0 km/h
1249 13-01-2011 09:50:02 11.4 C 8.31 g/m*3 11.4 C 0 km/h
1250 13-01-2011 10:02:01 11.5 C 8.37 g/m*3 11.5 C 0 km/h
Sensor: Nr:Datum:Temp:Abs-Feuchte:Windchill:Wind:
Aussen-T/F 1251 13-01-2011 10:14:01 11.9 C 8.47 g/m*3 11.9 C 0 km/h
1252 13-01-2011 10:26:01 11.8 C 8.31 g/m*3 11.8 C 0 km/h
1253 13-01-2011 10:38:02 12.2 C 8.2 g/m*3 12.2 C 0 km/h
1254 13-01-2011 10:50:01 12.3 C 8.25 g/m*3 12.3 C 0 km/h
1255 13-01-2011 11:02:02 12.5 C 8.36 g/m*3 12.5 C 0 km/h
1256 13-01-2011 11:14:02 12.3 C 8.25 g/m*3 12.3 C 0 km/h
1257 13-01-2011 11:26:01 12.6 C 8.19 g/m*3 12.6 C 0 km/h
1258 13-01-2011 11:38:01 12.5 C 8.25 g/m*3 12.5 C 0 km/h
1259 13-01-2011 11:50:01 12.7 C 8.24 g/m*3 12.7 C 0 km/h
1260 13-01-2011 12:02:01 12.6 C 8.3 g/m*3 12.6 C 0 km/h
1261 13-01-2011 12:14:02 12.5 C 8.25 g/m*3 12.5 C 0 km/h
1262 13-01-2011 12:26:01 12.4 C 8.3 g/m*3 12.4 C 0 km/h
1263 13-01-2011 12:38:01 12.4 C 8.41 g/m*3 12.4 C 0 km/h
1264 13-01-2011 12:50:01 12.4 C 8.3 g/m*3 12.4 C 0 km/h
1265 13-01-2011 13:02:01 12.2 C 8.42 g/m*3 12.2 C 0 km/h
1266 13-01-2011 13:14:01 12.2 C 8.42 g/m*3 12.2 C 0 km/h
1267 13-01-2011 13:26:02 12.7 C 8.46 g/m*3 12.7 C 0 km/h
1268 13-01-2011 13:38:01 12.7 C 8.35 g/m*3 12.7 C 0 km/h
1269 13-01-2011 13:50:02 12.9 C 8.34 g/m*3 12.9 C 0 km/h
1270 13-01-2011 14:02:01 13 C 8.28 g/m*3 13 C 0 km/h
1271 13-01-2011 14:14:01 13 C 8.28 g/m*3 13 C 0 km/h
1272 13-01-2011 14:26:02 13.2 C 8.27 g/m*3 13.2 C 0 km/h
1273 13-01-2011 14:38:01 13.4 C 8.37 g/m*3 13.4 C 0 km/h
1274 13-01-2011 14:50:01 13.3 C 8.2 g/m*3 13.3 C 0 km/h
1275 13-01-2011 15:02:01 13.1 C 8.22 g/m*3 13.1 C 0 km/h
Sensor: Nr:Datum:Temp:Abs-Feuchte:Windchill:Wind:
Aussen-T/F 1276 13-01-2011 15:14:01 13.2 C 8.27 g/m*3 13.2 C 0 km/h
1277 13-01-2011 15:26:01 13.1 C 8.22 g/m*3 13.1 C 0 km/h
1278 13-01-2011 15:38:02 13 C 8.28 g/m*3 13 C 0 km/h
1279 13-01-2011 15:50:01 12.9 C 8.34 g/m*3 12.9 C 0 km/h
1280 13-01-2011 16:02:02 12.9 C 8.45 g/m*3 12.9 C 0 km/h
1281 13-01-2011 16:14:02 12.9 C 8.45 g/m*3 12.9 C 0 km/h
1282 13-01-2011 16:26:01 13 C 8.39 g/m*3 13 C 0 km/h
1283 13-01-2011 16:38:01 12.8 C 8.51 g/m*3 12.8 C 0 km/h
1284 13-01-2011 16:50:01 12.9 C 8.57 g/m*3 12.9 C 0 km/h
1285 13-01-2011 17:02:01 12.8 C 8.51 g/m*3 12.8 C 0 km/h
1286 13-01-2011 17:14:02 12.9 C 8.57 g/m*3 12.9 C 0 km/h
1287 13-01-2011 17:26:01 12.7 C 8.46 g/m*3 12.7 C 0 km/h
1288 13-01-2011 17:38:01 12.9 C 8.57 g/m*3 12.9 C 0 km/h
1289 13-01-2011 17:50:01 13 C 8.39 g/m*3 13 C 0 km/h
1290 13-01-2011 18:02:01 13 C 8.39 g/m*3 13 C 0 km/h
1291 13-01-2011 18:14:01 12.9 C 8.45 g/m*3 12.9 C 0 km/h
1292 13-01-2011 18:26:02 12.7 C 8.35 g/m*3 12.7 C 0 km/h
1293 13-01-2011 18:38:01 12.8 C 8.51 g/m*3 12.8 C 0 km/h
1294 13-01-2011 18:50:02 12.8 C 8.4 g/m*3 12.8 C 0 km/h
1295 13-01-2011 19:02:01 12.9 C 8.57 g/m*3 12.9 C 0 km/h
1296 13-01-2011 19:14:01 12.8 C 8.51 g/m*3 12.8 C 0 km/h
1297 13-01-2011 19:26:02 12.8 C 8.51 g/m*3 12.8 C 0 km/h
1298 13-01-2011 19:38:02 12.8 C 8.51 g/m*3 12.8 C 0 km/h
1299 13-01-2011 19:50:01 12.8 C 8.4 g/m*3 12.8 C 0 km/h
1300 13-01-2011 20:02:02 12.8 C 8.51 g/m*3 12.8 C 0 km/h
Sensor: Nr:Datum:Temp:Abs-Feuchte:Windchill:Wind:
Aussen-T/F 1301 13-01-2011 20:14:02 12.7 C 8.46 g/m*3 12.7 C 0 km/h
1302 13-01-2011 20:26:01 12.6 C 8.52 g/m*3 12.6 C 0 km/h
1303 13-01-2011 20:38:01 12.7 C 8.57 g/m*3 12.7 C 0 km/h
1304 13-01-2011 20:50:01 12.7 C 8.57 g/m*3 12.7 C 0 km/h
1305 13-01-2011 21:02:01 12.7 C 8.46 g/m*3 12.7 C 0 km/h
1306 13-01-2011 21:14:01 12.7 C 8.46 g/m*3 12.7 C 0 km/h
1307 13-01-2011 21:26:01 12.8 C 8.51 g/m*3 12.8 C 0 km/h
1308 13-01-2011 21:38:01 13 C 8.39 g/m*3 13 C 0 km/h
1309 13-01-2011 21:50:01 12.9 C 8.45 g/m*3 12.9 C 0 km/h
1310 13-01-2011 22:02:01 12.9 C 8.45 g/m*3 12.9 C 0 km/h
1311 13-01-2011 22:14:01 12.8 C 8.4 g/m*3 12.8 C 0 km/h
1312 13-01-2011 22:26:01 12.8 C 8.29 g/m*3 12.8 C 0 km/h
1313 13-01-2011 22:38:02 12.8 C 8.29 g/m*3 12.8 C 0 km/h
1314 13-01-2011 22:50:01 12.8 C 8.29 g/m*3 12.8 C 0 km/h
1315 13-01-2011 23:02:02 12.9 C 8.34 g/m*3 12.9 C 0 km/h
1316 13-01-2011 23:14:02 12.7 C 8.24 g/m*3 12.7 C 0 km/h
1317 13-01-2011 23:26:01 12.7 C 8.24 g/m*3 12.7 C 0 km/h
1318 13-01-2011 23:38:02 12.7 C 8.24 g/m*3 12.7 C 0 km/h
1319 13-01-2011 23:50:01 12.7 C 8.24 g/m*3 12.7 C 0 km/h
1320 14-01-2011 00:02:02 12.7 C 8.24 g/m*3 12.7 C 0 km/h
1321 14-01-2011 00:14:02 12.5 C 8.14 g/m*3 12.5 C 0 km/h
1322 14-01-2011 00:26:01 12.4 C 8.09 g/m*3 12.4 C 0 km/h
1323 14-01-2011 00:38:02 12.5 C 8.14 g/m*3 12.5 C 0 km/h
1324 14-01-2011 00:50:01 12.7 C 8.13 g/m*3 12.7 C 0 km/h
1325 14-01-2011 01:02:02 12.5 C 8.14 g/m*3 12.5 C 0 km/h
Sensor: Nr:Datum:Temp:Abs-Feuchte:Windchill:Wind:
Aussen-T/F 1326 14-01-2011 01:14:02 12.4 C 8.09 g/m*3 12.4 C 0 km/h
1327 14-01-2011 01:26:01 12.5 C 8.14 g/m*3 12.5 C 0 km/h
1328 14-01-2011 01:38:02 12.6 C 8.08 g/m*3 12.6 C 0 km/h
1329 14-01-2011 01:50:01 12.5 C 8.03 g/m*3 12.5 C 0 km/h
1330 14-01-2011 02:02:02 12.4 C 7.98 g/m*3 12.4 C 0 km/h
1331 14-01-2011 02:14:02 12.3 C 7.93 g/m*3 12.3 C 0 km/h
1332 14-01-2011 02:26:01 12.3 C 7.93 g/m*3 12.3 C 0 km/h
1333 14-01-2011 02:38:01 12.3 C 7.93 g/m*3 12.3 C 0 km/h
1334 14-01-2011 02:50:01 12.4 C 7.98 g/m*3 12.4 C 0 km/h
1335 14-01-2011 03:02:01 12.2 C 7.88 g/m*3 12.2 C 0 km/h
1336 14-01-2011 03:14:01 12.4 C 7.98 g/m*3 12.4 C 0 km/h
1337 14-01-2011 03:26:02 12.2 C 7.77 g/m*3 12.2 C 0 km/h
1338 14-01-2011 03:38:01 12.2 C 7.77 g/m*3 12.2 C 0 km/h
1339 14-01-2011 03:50:01 12.2 C 7.77 g/m*3 12.2 C 0 km/h
1340 14-01-2011 04:02:02 12.2 C 7.77 g/m*3 12.2 C 0 km/h
1341 14-01-2011 04:14:02 12.2 C 7.88 g/m*3 12.2 C 0 km/h
1342 14-01-2011 04:26:01 12.4 C 7.87 g/m*3 12.4 C 0 km/h
1343 14-01-2011 04:38:01 12.2 C 7.77 g/m*3 12.2 C 0 km/h
1344 14-01-2011 04:50:01 12.2 C 7.77 g/m*3 12.2 C 0 km/h
1345 14-01-2011 05:02:01 12.1 C 7.83 g/m*3 12.1 C 0 km/h
1346 14-01-2011 05:14:01 12.1 C 7.83 g/m*3 12.1 C 0 km/h
1347 14-01-2011 05:26:01 12.3 C 7.82 g/m*3 12.3 C 0 km/h
1348 14-01-2011 05:38:01 12.5 C 7.81 g/m*3 12.5 C 0 km/h
1349 14-01-2011 05:50:01 12.3 C 7.71 g/m*3 12.3 C 0 km/h
1350 14-01-2011 06:02:01 12.4 C 7.65 g/m*3 12.4 C 0 km/h
Sensor: Nr:Datum:Temp:Abs-Feuchte:Windchill:Wind:
Aussen-T/F 1351 14-01-2011 06:14:01 12.6 C 7.63 g/m*3 12.6 C 0 km/h
1352 14-01-2011 06:26:02 12.5 C 7.59 g/m*3 12.5 C 0 km/h
1353 14-01-2011 06:38:01 12.7 C 7.57 g/m*3 12.7 C 0 km/h
1354 14-01-2011 06:50:02 12.6 C 7.63 g/m*3 12.6 C 0 km/h
1355 14-01-2011 07:02:01 12.3 C 7.6 g/m*3 12.3 C 0 km/h
1356 14-01-2011 07:14:01 12.3 C 7.49 g/m*3 12.3 C 0 km/h
1357 14-01-2011 07:26:02 12.4 C 7.43 g/m*3 12.4 C 0 km/h
1358 14-01-2011 07:38:01 12.2 C 7.12 g/m*3 12.2 C 0 km/h
1359 14-01-2011 07:50:01 12.3 C 7.17 g/m*3 12.3 C 0 km/h
1360 14-01-2011 08:02:01 12.1 C 7.08 g/m*3 12.1 C 0 km/h
1361 14-01-2011 08:14:01 12.2 C 7.01 g/m*3 12.2 C 0 km/h
1362 14-01-2011 08:26:02 11.7 C 7.01 g/m*3 11.7 C 0 km/h
1363 14-01-2011 08:38:01 11.2 C 6.89 g/m*3 11.2 C 0 km/h
1364 14-01-2011 08:50:02 11.1 C 6.95 g/m*3 11.1 C 0 km/h
1365 14-01-2011 09:02:01 11.2 C 6.99 g/m*3 11.2 C 0 km/h
1366 14-01-2011 09:14:01 11.4 C 6.77 g/m*3 11.4 C 0 km/h
1367 14-01-2011 09:26:01 11.6 C 6.86 g/m*3 11.6 C 0 km/h
1368 14-01-2011 09:38:01 11.6 C 6.76 g/m*3 11.6 C 0 km/h
1369 14-01-2011 09:50:01 11.5 C 6.82 g/m*3 11.5 C 0 km/h
1370 14-01-2011 10:02:01 11.8 C 6.84 g/m*3 11.8 C 0 km/h
1371 14-01-2011 10:14:01 11.9 C 6.78 g/m*3 11.9 C 0 km/h
1372 14-01-2011 10:26:01 11.9 C 6.78 g/m*3 11.9 C 0 km/h
1373 14-01-2011 10:38:02 11.3 C 6.53 g/m*3 11.3 C 0 km/h
1374 14-01-2011 10:50:01 11.8 C 6.63 g/m*3 11.8 C 0 km/h
1375 14-01-2011 11:02:02 12 C 6.61 g/m*3 12 C 0 km/h
Sensor: Nr:Datum:Temp:Abs-Feuchte:Windchill:Wind:
Aussen-T/F 1376 14-01-2011 11:14:02 11.9 C 6.67 g/m*3 11.9 C 0 km/h
1377 14-01-2011 11:26:01 12 C 6.61 g/m*3 12 C 0 km/h
1378 14-01-2011 11:38:02 12 C 6.61 g/m*3 12 C 0 km/h
1379 14-01-2011 11:50:01 12.2 C 6.58 g/m*3 12.2 C 0 km/h
1380 14-01-2011 12:02:01 12 C 6.5 g/m*3 12 C 0 km/h
1381 14-01-2011 12:14:02 12.2 C 6.58 g/m*3 12.2 C 0 km/h
1382 14-01-2011 12:26:01 12.3 C 6.52 g/m*3 12.3 C 0 km/h
1383 14-01-2011 12:38:01 12.2 C 6.58 g/m*3 12.2 C 0 km/h
1384 14-01-2011 12:50:01 12 C 6.5 g/m*3 12 C 0 km/h
1385 14-01-2011 13:02:01 12 C 6.61 g/m*3 12 C 0 km/h
1386 14-01-2011 13:14:01 12 C 6.71 g/m*3 12 C 0 km/h
1387 14-01-2011 13:26:02 12 C 6.61 g/m*3 12 C 0 km/h
1388 14-01-2011 13:38:01 12 C 6.61 g/m*3 12 C 0 km/h
1389 14-01-2011 13:50:02 12 C 6.61 g/m*3 12 C 0 km/h
1390 14-01-2011 14:02:01 11.8 C 6.74 g/m*3 11.8 C 0 km/h
1391 14-01-2011 14:14:01 11.7 C 6.8 g/m*3 11.7 C 0 km/h
1392 14-01-2011 14:26:02 11.6 C 6.86 g/m*3 11.6 C 0 km/h
1393 14-01-2011 14:38:01 11.5 C 6.82 g/m*3 11.5 C 0 km/h
1394 14-01-2011 14:50:02 11.6 C 6.86 g/m*3 11.6 C 0 km/h
1395 14-01-2011 15:02:01 11.8 C 6.74 g/m*3 11.8 C 0 km/h
1396 14-01-2011 15:14:01 12 C 6.61 g/m*3 12 C 0 km/h
1397 14-01-2011 15:26:01 12.2 C 6.47 g/m*3 12.2 C 0 km/h
1398 14-01-2011 15:38:02 12.4 C 6.45 g/m*3 12.4 C 0 km/h
1399 14-01-2011 15:50:01 12.2 C 6.47 g/m*3 12.2 C 0 km/h
1400 14-01-2011 16:02:02 12.2 C 6.37 g/m*3 12.2 C 0 km/h
Sensor: Nr:Datum:Temp:Abs-Feuchte:Windchill:Wind:
Aussen-T/F 1401 14-01-2011 16:14:02 12.1 C 6.43 g/m*3 12.1 C 0 km/h
1402 14-01-2011 16:26:01 12 C 6.39 g/m*3 12 C 0 km/h
1403 14-01-2011 16:38:01 11.9 C 6.46 g/m*3 11.9 C 0 km/h
1404 14-01-2011 16:50:01 11.6 C 6.34 g/m*3 11.6 C 0 km/h
1405 14-01-2011 17:02:01 11.6 C 6.34 g/m*3 11.6 C 0 km/h
1406 14-01-2011 17:14:01 11.6 C 6.44 g/m*3 11.6 C 0 km/h
1407 14-01-2011 17:26:01 11.5 C 6.3 g/m*3 11.5 C 0 km/h
1408 14-01-2011 17:38:01 11.5 C 6.3 g/m*3 11.5 C 0 km/h
1409 14-01-2011 17:50:01 11.4 C 6.26 g/m*3 11.4 C 0 km/h
1410 14-01-2011 18:02:01 11.2 C 6.28 g/m*3 11.2 C 0 km/h
1411 14-01-2011 18:14:01 11 C 6.31 g/m*3 11 C 0 km/h
1412 14-01-2011 18:26:02 11.3 C 6.32 g/m*3 11.3 C 0 km/h
1413 14-01-2011 18:38:01 10.8 C 6.33 g/m*3 10.8 C 0 km/h
1414 14-01-2011 18:50:02 10.9 C 6.37 g/m*3 10.9 C 0 km/h
1415 14-01-2011 19:02:01 10.8 C 6.33 g/m*3 10.8 C 0 km/h
1416 14-01-2011 19:14:01 10.7 C 6.29 g/m*3 10.7 C 0 km/h
1417 14-01-2011 19:26:01 11 C 6.21 g/m*3 11 C 0 km/h
1418 14-01-2011 19:38:01 11.3 C 6.22 g/m*3 11.3 C 0 km/h
1419 14-01-2011 19:50:01 11.9 C 6.14 g/m*3 11.9 C 0 km/h
1420 14-01-2011 20:02:01 11.9 C 6.04 g/m*3 11.9 C 0 km/h
1421 14-01-2011 20:14:01 11.8 C 6.1 g/m*3 11.8 C 0 km/h
1422 14-01-2011 20:26:01 11.8 C 6.1 g/m*3 11.8 C 0 km/h
1423 14-01-2011 20:38:02 11.5 C 6.09 g/m*3 11.5 C 0 km/h
1424 14-01-2011 20:50:01 11.4 C 6.06 g/m*3 11.4 C 0 km/h
1425 14-01-2011 21:02:02 11.4 C 6.06 g/m*3 11.4 C 0 km/h
Sensor: Nr:Datum:Temp:Abs-Feuchte:Windchill:Wind:
Aussen-T/F 1426 14-01-2011 21:14:02 11.4 C 5.95 g/m*3 11.4 C 0 km/h
1427 14-01-2011 21:26:01 11.4 C 6.06 g/m*3 11.4 C 0 km/h
1428 14-01-2011 21:38:01 11.4 C 5.95 g/m*3 11.4 C 0 km/h
1429 14-01-2011 21:50:01 11.4 C 6.06 g/m*3 11.4 C 0 km/h
1430 14-01-2011 22:04:03 11.2 C 6.08 g/m*3 11.2 C 0 km/h
1431 14-01-2011 22:16:03 11.1 C 6.14 g/m*3 11.1 C 0 km/h
1432 14-01-2011 22:28:03 11.1 C 6.25 g/m*3 11.1 C 0 km/h
1433 14-01-2011 22:40:03 10.6 C 6.34 g/m*3 10.6 C 0 km/h
1434 14-01-2011 22:52:03 10.1 C 6.43 g/m*3 10.1 C 0 km/h
1435 14-01-2011 23:04:03 10 C 6.58 g/m*3 10 C 0 km/h
1436 14-01-2011 23:16:03 9.5 C 6.74 g/m*3 9.5 C 0 km/h
1437 14-01-2011 23:28:03 9.1 C 6.92 g/m*3 9.1 C 0 km/h
1438 14-01-2011 23:40:03 9.1 C 6.92 g/m*3 9.1 C 0 km/h
1439 14-01-2011 23:52:03 8.5 C 6.66 g/m*3 8.5 C 0 km/h
1440 15-01-2011 00:04:03 8.3 C 6.74 g/m*3 8.3 C 0 km/h
1441 15-01-2011 00:16:03 8 C 6.7 g/m*3 8 C 0 km/h
1442 15-01-2011 00:28:03 8.5 C 6.74 g/m*3 8.5 C 0 km/h
1443 15-01-2011 00:40:03 8.1 C 6.49 g/m*3 8.1 C 0 km/h
1444 15-01-2011 00:52:03 8.2 C 6.53 g/m*3 8.2 C 0 km/h
1445 15-01-2011 01:04:03 8.1 C 6.49 g/m*3 8.1 C 0 km/h
1446 15-01-2011 01:16:03 8.3 C 6.49 g/m*3 8.3 C 0 km/h
1447 15-01-2011 01:28:03 8.5 C 6.32 g/m*3 8.5 C 0 km/h
1448 15-01-2011 01:40:03 8.2 C 6.36 g/m*3 8.2 C 0 km/h
1449 15-01-2011 01:52:03 8 C 6.37 g/m*3 8 C 0 km/h
1450 15-01-2011 02:04:04 8.4 C 6.45 g/m*3 8.4 C 0 km/h
Sensor: Nr:Datum:Temp:Abs-Feuchte:Windchill:Wind:
Aussen-T/F 1451 15-01-2011 02:16:04 8.3 C 6.41 g/m*3 8.3 C 0 km/h
1452 15-01-2011 02:28:04 8.1 C 6.32 g/m*3 8.1 C 0 km/h
1453 15-01-2011 02:40:04 7.6 C 6.36 g/m*3 7.6 C 0 km/h
1454 15-01-2011 02:52:04 7.8 C 6.61 g/m*3 7.8 C 0 km/h
1455 15-01-2011 03:04:04 8 C 6.45 g/m*3 8 C 0 km/h
1456 15-01-2011 03:16:04 8.1 C 6.41 g/m*3 8.1 C 0 km/h
1457 15-01-2011 03:28:04 8.4 C 6.62 g/m*3 8.4 C 0 km/h
1458 15-01-2011 03:40:04 8.1 C 6.41 g/m*3 8.1 C 0 km/h
1459 15-01-2011 03:52:04 8 C 6.45 g/m*3 8 C 0 km/h
1460 15-01-2011 04:04:04 7.8 C 6.45 g/m*3 7.8 C 0 km/h
1461 15-01-2011 04:16:04 8 C 6.53 g/m*3 8 C 0 km/h
1462 15-01-2011 04:28:04 8.2 C 6.36 g/m*3 8.2 C 0 km/h
1463 15-01-2011 04:40:04 8.7 C 6.4 g/m*3 8.7 C 0 km/h
1464 15-01-2011 04:52:04 8.4 C 6.28 g/m*3 8.4 C 0 km/h
1465 15-01-2011 05:04:04 8.3 C 6.15 g/m*3 8.3 C 0 km/h
1466 15-01-2011 05:16:04 8.1 C 6.07 g/m*3 8.1 C 0 km/h
1467 15-01-2011 05:28:04 7.7 C 6.24 g/m*3 7.7 C 0 km/h
1468 15-01-2011 05:40:04 8 C 6.12 g/m*3 8 C 0 km/h
1469 15-01-2011 05:52:04 7.7 C 6.08 g/m*3 7.7 C 0 km/h
1470 15-01-2011 06:04:05 7.5 C 6.24 g/m*3 7.5 C 0 km/h
1471 15-01-2011 06:16:05 6.9 C 6.24 g/m*3 6.9 C 0 km/h
1472 15-01-2011 06:28:05 7.3 C 6.24 g/m*3 7.3 C 0 km/h
1473 15-01-2011 06:40:05 7.6 C 6.2 g/m*3 7.6 C 0 km/h
1474 15-01-2011 06:52:05 7.9 C 6.16 g/m*3 7.9 C 0 km/h
1475 15-01-2011 07:04:05 7.1 C 6.01 g/m*3 7.1 C 0 km/h
Sensor: Nr:Datum:Temp:Abs-Feuchte:Windchill:Wind:
Aussen-T/F 1476 15-01-2011 07:16:05 7.3 C 6.24 g/m*3 7.3 C 0 km/h
1477 15-01-2011 07:28:05 7 C 6.2 g/m*3 7 C 0 km/h
1478 15-01-2011 07:40:05 7 C 6.12 g/m*3 7 C 0 km/h
1479 15-01-2011 07:52:05 7 C 6.12 g/m*3 7 C 0 km/h
1480 15-01-2011 08:04:02 7 C 6.12 g/m*3 7 C 0 km/h
1481 15-01-2011 08:16:03 7.1 C 6.08 g/m*3 7.1 C 0 km/h
1482 15-01-2011 08:28:03 8 C 6.28 g/m*3 8 C 0 km/h
1483 15-01-2011 08:40:02 8 C 6.04 g/m*3 8 C 0 km/h
1484 15-01-2011 08:52:03 8.3 C 6.15 g/m*3 8.3 C 0 km/h
1485 15-01-2011 09:04:02 8.2 C 5.95 g/m*3 8.2 C 0 km/h
1486 15-01-2011 09:16:02 7.9 C 5.91 g/m*3 7.9 C 0 km/h
1487 15-01-2011 09:28:02 8.2 C 6.03 g/m*3 8.2 C 0 km/h
1488 15-01-2011 09:40:02 8.5 C 5.98 g/m*3 8.5 C 0 km/h
1489 15-01-2011 09:52:02 8.7 C 6.05 g/m*3 8.7 C 0 km/h
1490 15-01-2011 10:04:01 9.1 C 5.94 g/m*3 9.1 C 0 km/h
1491 15-01-2011 10:16:02 8.9 C 5.96 g/m*3 8.9 C 0 km/h
1492 15-01-2011 10:28:02 9 C 5.91 g/m*3 9 C 0 km/h
1493 15-01-2011 10:40:02 9.1 C 5.86 g/m*3 9.1 C 0 km/h
1494 15-01-2011 10:52:02 9.2 C 5.89 g/m*3 9.2 C 0 km/h
1495 15-01-2011 11:04:02 9.4 C 5.97 g/m*3 9.4 C 0 km/h
1496 15-01-2011 11:16:02 9.5 C 6.01 g/m*3 9.5 C 0 km/h
1497 15-01-2011 11:28:02 10.1 C 5.96 g/m*3 10.1 C 0 km/h
1498 15-01-2011 11:40:02 10.1 C 5.77 g/m*3 10.1 C 0 km/h
1499 15-01-2011 11:52:02 10.2 C 5.71 g/m*3 10.2 C 0 km/h
1500 15-01-2011 12:04:02 10.2 C 5.8 g/m*3 10.2 C 0 km/h
Sensor: Nr:Datum:Temp:Abs-Feuchte:Windchill:Wind:
Aussen-T/F 1501 15-01-2011 12:16:03 10.2 C 5.71 g/m*3 10.2 C 0 km/h
1502 15-01-2011 12:28:03 10.3 C 5.75 g/m*3 10.3 C 0 km/h
1503 15-01-2011 12:40:02 10.2 C 5.71 g/m*3 10.2 C 0 km/h
1504 15-01-2011 12:52:01 10.1 C 5.67 g/m*3 10.1 C 0 km/h
1505 15-01-2011 13:04:01 10.1 C 5.58 g/m*3 10.1 C 0 km/h
1506 15-01-2011 13:16:02 10 C 5.64 g/m*3 10 C 0 km/h
1507 15-01-2011 13:28:02 10 C 5.54 g/m*3 10 C 0 km/h
1508 15-01-2011 13:40:01 10 C 5.54 g/m*3 10 C 0 km/h
1509 15-01-2011 13:52:01 10.1 C 5.58 g/m*3 10.1 C 0 km/h
1510 15-01-2011 14:04:01 10.2 C 5.61 g/m*3 10.2 C 0 km/h
1511 15-01-2011 14:16:02 10 C 5.54 g/m*3 10 C 0 km/h
1512 15-01-2011 14:28:02 10 C 5.54 g/m*3 10 C 0 km/h
1513 15-01-2011 14:40:01 10 C 5.54 g/m*3 10 C 0 km/h
1514 15-01-2011 14:52:01 10 C 5.45 g/m*3 10 C 0 km/h
1515 15-01-2011 15:04:01 9.9 C 5.42 g/m*3 9.9 C 0 km/h
1516 15-01-2011 15:16:02 9.8 C 5.57 g/m*3 9.8 C 0 km/h
1517 15-01-2011 15:28:02 9.6 C 5.5 g/m*3 9.6 C 0 km/h
1518 15-01-2011 15:40:01 9.7 C 5.53 g/m*3 9.7 C 0 km/h
1519 15-01-2011 15:52:02 9.1 C 5.59 g/m*3 9.1 C 0 km/h
1520 15-01-2011 16:04:02 8.8 C 5.83 g/m*3 8.8 C 0 km/h
1521 15-01-2011 16:16:03 8.7 C 5.71 g/m*3 8.7 C 0 km/h
1522 15-01-2011 16:28:03 8.9 C 5.69 g/m*3 8.9 C 0 km/h
1523 15-01-2011 16:40:02 8.9 C 5.69 g/m*3 8.9 C 0 km/h
1524 15-01-2011 16:52:02 9.2 C 5.63 g/m*3 9.2 C 0 km/h
1525 15-01-2011 17:04:01 8.7 C 5.79 g/m*3 8.7 C 0 km/h
Sensor: Nr:Datum:Temp:Abs-Feuchte:Windchill:Wind:
Aussen-T/F 1526 15-01-2011 17:16:01 9.1 C 5.59 g/m*3 9.1 C 0 km/h
1527 15-01-2011 17:28:01 9.2 C 5.54 g/m*3 9.2 C 0 km/h
1528 15-01-2011 17:40:02 9 C 5.64 g/m*3 9 C 0 km/h
1529 15-01-2011 17:52:03 9.1 C 5.68 g/m*3 9.1 C 0 km/h
1530 15-01-2011 18:04:03 9.2 C 5.71 g/m*3 9.2 C 0 km/h
1531 15-01-2011 18:16:01 9.1 C 5.68 g/m*3 9.1 C 0 km/h
1532 15-01-2011 18:28:01 9 C 5.82 g/m*3 9 C 0 km/h
1533 15-01-2011 18:40:02 9 C 5.82 g/m*3 9 C 0 km/h
1534 15-01-2011 18:52:02 8.6 C 5.84 g/m*3 8.6 C 0 km/h
1535 15-01-2011 19:04:02 9.1 C 5.77 g/m*3 9.1 C 0 km/h
1536 15-01-2011 19:16:02 9.3 C 5.66 g/m*3 9.3 C 0 km/h
1537 15-01-2011 19:28:02 9.1 C 5.59 g/m*3 9.1 C 0 km/h
1538 15-01-2011 19:40:02 9.3 C 5.75 g/m*3 9.3 C 0 km/h
1539 15-01-2011 19:52:01 9.1 C 5.68 g/m*3 9.1 C 0 km/h
1540 15-01-2011 20:04:01 9.4 C 5.7 g/m*3 9.4 C 0 km/h
1541 15-01-2011 20:16:02 9.1 C 5.59 g/m*3 9.1 C 0 km/h
1542 15-01-2011 20:28:02 8.6 C 5.67 g/m*3 8.6 C 0 km/h
1543 15-01-2011 20:40:01 8.9 C 5.69 g/m*3 8.9 C 0 km/h
1544 15-01-2011 20:52:01 8.6 C 5.76 g/m*3 8.6 C 0 km/h
1545 15-01-2011 21:04:01 8.2 C 5.53 g/m*3 8.2 C 0 km/h
1546 15-01-2011 21:16:02 8.1 C 5.57 g/m*3 8.1 C 0 km/h
1547 15-01-2011 21:28:02 8 C 5.54 g/m*3 8 C 0 km/h
1548 15-01-2011 21:40:01 7.8 C 5.71 g/m*3 7.8 C 0 km/h
1549 15-01-2011 21:52:01 8.1 C 5.74 g/m*3 8.1 C 0 km/h
1550 15-01-2011 22:04:01 8.3 C 5.82 g/m*3 8.3 C 0 km/h
Sensor: Nr:Datum:Temp:Abs-Feuchte:Windchill:Wind:
Aussen-T/F 1551 15-01-2011 22:16:02 8.5 C 5.98 g/m*3 8.5 C 0 km/h
1552 15-01-2011 22:28:02 8.9 C 5.96 g/m*3 8.9 C 0 km/h
1553 15-01-2011 22:41:03 8.6 C 5.84 g/m*3 8.6 C 0 km/h
1554 15-01-2011 22:53:03 8.7 C 5.88 g/m*3 8.7 C 0 km/h
1555 15-01-2011 23:05:03 8.5 C 5.89 g/m*3 8.5 C 0 km/h
1556 15-01-2011 23:17:03 8.2 C 5.86 g/m*3 8.2 C 0 km/h
1557 15-01-2011 23:29:03 8.7 C 5.88 g/m*3 8.7 C 0 km/h
1558 15-01-2011 23:41:03 8.8 C 5.92 g/m*3 8.8 C 0 km/h
1559 15-01-2011 23:53:03 8.9 C 5.87 g/m*3 8.9 C 0 km/h
1560 16-01-2011 00:05:03 8.7 C 5.97 g/m*3 8.7 C 0 km/h
1561 16-01-2011 00:17:03 8.8 C 5.92 g/m*3 8.8 C 0 km/h
1562 16-01-2011 00:29:03 9 C 5.82 g/m*3 9 C 0 km/h
1563 16-01-2011 00:41:03 9 C 5.73 g/m*3 9 C 0 km/h
1564 16-01-2011 00:53:04 9 C 5.73 g/m*3 9 C 0 km/h
1565 16-01-2011 01:05:04 8.5 C 5.64 g/m*3 8.5 C 0 km/h
1566 16-01-2011 01:17:04 8.6 C 5.76 g/m*3 8.6 C 0 km/h
1567 16-01-2011 01:29:04 8 C 5.7 g/m*3 8 C 0 km/h
1568 16-01-2011 01:41:04 8 C 5.7 g/m*3 8 C 0 km/h
1569 16-01-2011 01:53:04 8.1 C 5.66 g/m*3 8.1 C 0 km/h
1570 16-01-2011 02:05:04 8.1 C 5.66 g/m*3 8.1 C 0 km/h
1571 16-01-2011 02:17:04 7.8 C 5.71 g/m*3 7.8 C 0 km/h
1572 16-01-2011 02:29:04 7.8 C 5.79 g/m*3 7.8 C 0 km/h
1573 16-01-2011 02:41:04 7.8 C 5.88 g/m*3 7.8 C 0 km/h
1574 16-01-2011 02:53:04 8.3 C 5.82 g/m*3 8.3 C 0 km/h
1575 16-01-2011 03:05:04 8.4 C 5.77 g/m*3 8.4 C 0 km/h
Sensor: Nr:Datum:Temp:Abs-Feuchte:Windchill:Wind:
Aussen-T/F 1576 16-01-2011 03:17:04 8.3 C 5.65 g/m*3 8.3 C 0 km/h
1577 16-01-2011 03:29:04 8.2 C 5.69 g/m*3 8.2 C 0 km/h
1578 16-01-2011 03:41:04 7.8 C 5.71 g/m*3 7.8 C 0 km/h
1579 16-01-2011 03:53:04 8 C 5.7 g/m*3 8 C 0 km/h
1580 16-01-2011 04:05:04 7.9 C 5.75 g/m*3 7.9 C 0 km/h
1581 16-01-2011 04:17:04 8.2 C 5.78 g/m*3 8.2 C 0 km/h
1582 16-01-2011 04:29:04 8.5 C 5.72 g/m*3 8.5 C 0 km/h
1583 16-01-2011 04:41:04 8.4 C 5.77 g/m*3 8.4 C 0 km/h
1584 16-01-2011 04:53:05 8.1 C 5.74 g/m*3 8.1 C 0 km/h
1585 16-01-2011 05:05:05 7.9 C 5.83 g/m*3 7.9 C 0 km/h
1586 16-01-2011 05:17:05 7.3 C 5.85 g/m*3 7.3 C 0 km/h
1587 16-01-2011 05:29:05 6.8 C 5.97 g/m*3 6.8 C 0 km/h
1588 16-01-2011 05:41:05 7 C 6.12 g/m*3 7 C 0 km/h
1589 16-01-2011 05:53:05 6.8 C 6.12 g/m*3 6.8 C 0 km/h
1590 16-01-2011 06:05:05 7 C 6.2 g/m*3 7 C 0 km/h
1591 16-01-2011 06:17:05 7.1 C 6.16 g/m*3 7.1 C 0 km/h
1592 16-01-2011 06:29:05 7.5 C 6.16 g/m*3 7.5 C 0 km/h
1593 16-01-2011 06:41:05 7 C 5.89 g/m*3 7 C 0 km/h
1594 16-01-2011 06:53:05 6.7 C 6 g/m*3 6.7 C 0 km/h
1595 16-01-2011 07:05:05 7.5 C 6.16 g/m*3 7.5 C 0 km/h
1596 16-01-2011 07:17:05 7.8 C 6.12 g/m*3 7.8 C 0 km/h
1597 16-01-2011 07:29:05 7.9 C 6.08 g/m*3 7.9 C 0 km/h
1598 16-01-2011 07:41:05 7.8 C 6.04 g/m*3 7.8 C 0 km/h
1599 16-01-2011 07:53:05 8.4 C 5.94 g/m*3 8.4 C 0 km/h
1600 16-01-2011 08:05:05 8.2 C 5.86 g/m*3 8.2 C 0 km/h
Sensor: Nr:Datum:Temp:Abs-Feuchte:Windchill:Wind:
Aussen-T/F 1601 16-01-2011 08:17:05 8.3 C 5.9 g/m*3 8.3 C 0 km/h
1602 16-01-2011 08:29:05 8.3 C 5.82 g/m*3 8.3 C 0 km/h
1603 16-01-2011 08:41:05 8.1 C 5.82 g/m*3 8.1 C 0 km/h
1604 16-01-2011 08:53:05 8.2 C 5.95 g/m*3 8.2 C 0 km/h
1605 16-01-2011 09:05:02 8.3 C 5.98 g/m*3 8.3 C 0 km/h
1606 16-01-2011 09:17:02 8 C 5.87 g/m*3 8 C 0 km/h
1607 16-01-2011 09:29:02 8 C 5.87 g/m*3 8 C 0 km/h
1608 16-01-2011 09:41:02 8 C 5.87 g/m*3 8 C 0 km/h
1609 16-01-2011 09:53:01 7.9 C 5.91 g/m*3 7.9 C 0 km/h
1610 16-01-2011 10:05:02 7.9 C 5.91 g/m*3 7.9 C 0 km/h
1611 16-01-2011 10:17:01 7.9 C 5.91 g/m*3 7.9 C 0 km/h
1612 16-01-2011 10:29:01 7.9 C 5.91 g/m*3 7.9 C 0 km/h
1613 16-01-2011 10:41:01 8 C 5.95 g/m*3 8 C 0 km/h
1614 16-01-2011 10:53:01 8.2 C 5.86 g/m*3 8.2 C 0 km/h
1615 16-01-2011 11:05:02 8.1 C 5.91 g/m*3 8.1 C 0 km/h
1616 16-01-2011 11:17:01 8.1 C 5.91 g/m*3 8.1 C 0 km/h
1617 16-01-2011 11:29:01 8.3 C 5.98 g/m*3 8.3 C 0 km/h
1618 16-01-2011 11:41:02 8.6 C 6.1 g/m*3 8.6 C 0 km/h
1619 16-01-2011 11:53:01 8.7 C 6.05 g/m*3 8.7 C 0 km/h
1620 16-01-2011 12:05:02 8.6 C 6.1 g/m*3 8.6 C 0 km/h
1621 16-01-2011 12:17:01 8.6 C 6.19 g/m*3 8.6 C 0 km/h
1622 16-01-2011 12:29:01 8.6 C 6.19 g/m*3 8.6 C 0 km/h
1623 16-01-2011 12:41:02 8.7 C 6.14 g/m*3 8.7 C 0 km/h
1624 16-01-2011 12:53:01 8.7 C 6.14 g/m*3 8.7 C 0 km/h
1625 16-01-2011 13:05:02 8.9 C 6.22 g/m*3 8.9 C 0 km/h
Sensor: Nr:Datum:Temp:Abs-Feuchte:Windchill:Wind:
Aussen-T/F 1626 16-01-2011 13:17:02 8.9 C 6.22 g/m*3 8.9 C 0 km/h
1627 16-01-2011 13:29:02 8.8 C 6.18 g/m*3 8.8 C 0 km/h
1628 16-01-2011 13:41:01 8.7 C 6.14 g/m*3 8.7 C 0 km/h
1629 16-01-2011 13:53:02 8.8 C 6.18 g/m*3 8.8 C 0 km/h
1630 16-01-2011 14:05:01 8.6 C 6.1 g/m*3 8.6 C 0 km/h
1631 16-01-2011 14:17:02 7.8 C 6.04 g/m*3 7.8 C 0 km/h
1632 16-01-2011 14:29:02 7.5 C 6.24 g/m*3 7.5 C 0 km/h
1633 16-01-2011 14:41:01 8.7 C 6.57 g/m*3 8.7 C 0 km/h
1634 16-01-2011 14:53:02 9.7 C 6.36 g/m*3 9.7 C 0 km/h
1635 16-01-2011 15:05:01 9.9 C 6.26 g/m*3 9.9 C 0 km/h
1636 16-01-2011 15:17:02 10 C 6.11 g/m*3 10 C 0 km/h
1637 16-01-2011 15:29:02 10 C 6.11 g/m*3 10 C 0 km/h
1638 16-01-2011 15:41:01 9.9 C 6.26 g/m*3 9.9 C 0 km/h
1639 16-01-2011 15:53:02 9.8 C 6.4 g/m*3 9.8 C 0 km/h
1640 16-01-2011 16:05:02 9.3 C 6.38 g/m*3 9.3 C 0 km/h
1641 16-01-2011 16:17:02 8.7 C 6.4 g/m*3 8.7 C 0 km/h
1642 16-01-2011 16:29:02 8 C 6.28 g/m*3 8 C 0 km/h
1643 16-01-2011 16:41:02 7.4 C 6.36 g/m*3 7.4 C 0 km/h
1644 16-01-2011 16:53:02 6.8 C 6.27 g/m*3 6.8 C 0 km/h
1645 16-01-2011 17:05:01 6.3 C 6.14 g/m*3 6.3 C 0 km/h
1646 16-01-2011 17:17:02 6.2 C 6.18 g/m*3 6.2 C 0 km/h
1647 16-01-2011 17:29:02 6 C 6.17 g/m*3 6 C 0 km/h
1648 16-01-2011 17:41:02 5.6 C 6.08 g/m*3 5.6 C 0 km/h
1649 16-01-2011 17:53:02 5.5 C 6.11 g/m*3 5.5 C 0 km/h
1650 16-01-2011 18:05:03 5.1 C 5.95 g/m*3 5.1 C 0 km/h
Sensor: Nr:Datum:Temp:Abs-Feuchte:Windchill:Wind:
Aussen-T/F 1651 16-01-2011 18:17:02 5 C 5.91 g/m*3 5 C 0 km/h
1652 16-01-2011 18:29:02 4.8 C 5.9 g/m*3 4.8 C 0 km/h
1653 16-01-2011 18:41:02 4.7 C 5.93 g/m*3 4.7 C 0 km/h
1654 16-01-2011 18:53:02 4.6 C 5.89 g/m*3 4.6 C 0 km/h
1655 16-01-2011 19:05:01 4.5 C 5.85 g/m*3 4.5 C 0 km/h
1656 16-01-2011 19:17:02 4.4 C 5.81 g/m*3 4.4 C 0 km/h
1657 16-01-2011 19:29:03 4.4 C 5.81 g/m*3 4.4 C 0 km/h
1658 16-01-2011 19:41:01 3.9 C 5.68 g/m*3 3.9 C 0 km/h
1659 16-01-2011 19:53:02 3.9 C 5.68 g/m*3 3.9 C 0 km/h
1660 16-01-2011 20:05:02 3.4 C 5.5 g/m*3 3.4 C 0 km/h
1661 16-01-2011 20:17:02 3.7 C 5.61 g/m*3 3.7 C 0 km/h
1662 16-01-2011 20:29:02 3.5 C 5.53 g/m*3 3.5 C 0 km/h
1663 16-01-2011 20:41:03 2.9 C 5.37 g/m*3 2.9 C 0 km/h
1664 16-01-2011 20:53:02 2.8 C 5.34 g/m*3 2.8 C 0 km/h
1665 16-01-2011 21:05:01 2.7 C 5.3 g/m*3 2.7 C 0 km/h
1666 16-01-2011 21:17:02 2.2 C 5.13 g/m*3 2.2 C 0 km/h
1667 16-01-2011 21:29:02 2.7 C 5.3 g/m*3 2.7 C 0 km/h
1668 16-01-2011 21:41:02 2.2 C 5.13 g/m*3 2.2 C 0 km/h
1669 16-01-2011 21:53:02 2.2 C 5.13 g/m*3 2.2 C 0 km/h
1670 16-01-2011 22:06:04 1.8 C 5.04 g/m*3 1.8 C 0 km/h
1671 16-01-2011 22:18:04 2.8 C 5.4 g/m*3 2.8 C 0 km/h
1672 16-01-2011 22:30:04 1.9 C 5.08 g/m*3 1.9 C 0 km/h
1673 16-01-2011 22:42:04 2.1 C 5.09 g/m*3 2.1 C 0 km/h
1674 16-01-2011 22:54:04 2.2 C 5.18 g/m*3 2.2 C 0 km/h
1675 16-01-2011 23:06:04 2.1 C 5.15 g/m*3 2.1 C 0 km/h
Sensor: Nr:Datum:Temp:Abs-Feuchte:Windchill:Wind:
Aussen-T/F 1676 16-01-2011 23:18:04 1.5 C 4.94 g/m*3 1.5 C 0 km/h
1677 16-01-2011 23:30:04 1.5 C 4.94 g/m*3 1.5 C 0 km/h
1678 16-01-2011 23:42:04 1.1 C 4.81 g/m*3 1.1 C 0 km/h
1679 16-01-2011 23:54:04 0.6 C 4.65 g/m*3 0.6 C 0 km/h

Legende:
   Min
   Max


Maximal/Minimal-Werte vom 03.01.2011 - 16.01.2011

Sensor Min Max Avg
Temp
(Aussen-T/F)
-8 °C
05-01-2011  08:55:02
14.7 °C
08-01-2011  14:22:02
4.85 °C
Abs-Feuchte
(Aussen-T/F)
2.11 g/m*3
05-01-2011  08:55:02
8.57 g/m*3
13-01-2011  16:50:01
5.49 g/m*3
Windchill
(Aussen-T/F)
-8 C
05-01-2011  08:55:02
14.7 C
08-01-2011  14:22:02
4.85 C

Die Daten stammen von einer Davis Vantage Pro 2 Wetter-Station und werden unter Linux mit der Software wview2wettercgi und aufbereitet. Alle Angaben erfolgen ohne Gewähr für ihre Vollständigkeit oder Richtigkeit.
Kontakt: Rainer Krienke krienke@uni-koblenz.de . Meine Webseiten an der Uni Koblenz oder privat.
Version: $Revision: 0.78 $